<?xml version="1.0" encoding="UTF-8" standalone="no" ?>
<gpx xmlns="http://www.topografix.com/GPX/1/1" xmlns:xsi="http://www.w3.org/2001/XMLSchema-instance" xsi:schemaLocation="http://www.topografix.com/GPX/1/1 http://www.topografix.com/GPX/1/1/gpx.xsd" version="1.1" creator="VisuGPX - https://www.visugpx.com">
  <metadata>
    <name>Villars (Les Grands Cléments) 20/05/2026</name>
    <desc><![CDATA[Boucle de 12 km, dénivelé 490 m au départ des Grands Cléments (près de Villars)]]></desc>
  </metadata>
  <wpt lat="43.93517" lon="5.42614">
    <ele>331.5</ele>
    <name><![CDATA[Point de passage 1]]></name>
    <type><![CDATA[GENERIC]]></type>
  </wpt>
  <wpt lat="43.93522" lon="5.42607">
    <ele>331.7</ele>
    <name><![CDATA[Point de passage 2]]></name>
    <type><![CDATA[GENERIC]]></type>
  </wpt>
  <trk>
    <name><![CDATA[Randonnée du 20/05/2026 à 09:47]]></name>
    <trkseg>
      <trkpt lat="43.93517" lon="5.42614">
        <ele>331.5</ele>
        <time>2026-05-20T07:47:20.000Z</time>
      </trkpt>
      <trkpt lat="43.93518" lon="5.42613">
        <ele>331.6</ele>
        <time>2026-05-20T07:47:22.000Z</time>
      </trkpt>
      <trkpt lat="43.93525" lon="5.4261">
        <ele>331.9</ele>
        <time>2026-05-20T07:50:03.000Z</time>
      </trkpt>
      <trkpt lat="43.93534" lon="5.42612">
        <ele>332.2</ele>
        <time>2026-05-20T07:50:24.000Z</time>
      </trkpt>
      <trkpt lat="43.93541" lon="5.42621">
        <ele>332.3</ele>
        <time>2026-05-20T07:50:36.000Z</time>
      </trkpt>
      <trkpt lat="43.93547" lon="5.42632">
        <ele>332.4</ele>
        <time>2026-05-20T07:50:48.000Z</time>
      </trkpt>
      <trkpt lat="43.93552" lon="5.42644">
        <ele>332.7</ele>
        <time>2026-05-20T07:50:59.000Z</time>
      </trkpt>
      <trkpt lat="43.93558" lon="5.42655">
        <ele>333.3</ele>
        <time>2026-05-20T07:51:11.000Z</time>
      </trkpt>
      <trkpt lat="43.93567" lon="5.42662">
        <ele>334.2</ele>
        <time>2026-05-20T07:51:21.000Z</time>
      </trkpt>
      <trkpt lat="43.93577" lon="5.42663">
        <ele>335.2</ele>
        <time>2026-05-20T07:51:30.000Z</time>
      </trkpt>
      <trkpt lat="43.93586" lon="5.42661">
        <ele>335.9</ele>
        <time>2026-05-20T07:51:40.000Z</time>
      </trkpt>
      <trkpt lat="43.93595" lon="5.42659">
        <ele>336.4</ele>
        <time>2026-05-20T07:51:50.000Z</time>
      </trkpt>
      <trkpt lat="43.93604" lon="5.42657">
        <ele>336.9</ele>
        <time>2026-05-20T07:51:59.000Z</time>
      </trkpt>
      <trkpt lat="43.93614" lon="5.42655">
        <ele>337.7</ele>
        <time>2026-05-20T07:52:09.000Z</time>
      </trkpt>
      <trkpt lat="43.93624" lon="5.42651">
        <ele>338.7</ele>
        <time>2026-05-20T07:52:19.000Z</time>
      </trkpt>
      <trkpt lat="43.93634" lon="5.42648">
        <ele>339.5</ele>
        <time>2026-05-20T07:52:29.000Z</time>
      </trkpt>
      <trkpt lat="43.93643" lon="5.42645">
        <ele>340.4</ele>
        <time>2026-05-20T07:52:39.000Z</time>
      </trkpt>
      <trkpt lat="43.93652" lon="5.42646">
        <ele>341.3</ele>
        <time>2026-05-20T07:52:49.000Z</time>
      </trkpt>
      <trkpt lat="43.93662" lon="5.42652">
        <ele>342.1</ele>
        <time>2026-05-20T07:52:59.000Z</time>
      </trkpt>
      <trkpt lat="43.9367" lon="5.42657">
        <ele>342.7</ele>
        <time>2026-05-20T07:53:09.000Z</time>
      </trkpt>
      <trkpt lat="43.93679" lon="5.42661">
        <ele>343.5</ele>
        <time>2026-05-20T07:53:19.000Z</time>
      </trkpt>
      <trkpt lat="43.93688" lon="5.42666">
        <ele>344.3</ele>
        <time>2026-05-20T07:53:29.000Z</time>
      </trkpt>
      <trkpt lat="43.93697" lon="5.42672">
        <ele>345.2</ele>
        <time>2026-05-20T07:53:39.000Z</time>
      </trkpt>
      <trkpt lat="43.93704" lon="5.4268">
        <ele>345.8</ele>
        <time>2026-05-20T07:53:50.000Z</time>
      </trkpt>
      <trkpt lat="43.9371" lon="5.4269">
        <ele>346.2</ele>
        <time>2026-05-20T07:54:44.000Z</time>
      </trkpt>
      <trkpt lat="43.93716" lon="5.42702">
        <ele>346.3</ele>
        <time>2026-05-20T07:56:14.000Z</time>
      </trkpt>
      <trkpt lat="43.93723" lon="5.42715">
        <ele>346.4</ele>
        <time>2026-05-20T07:56:25.000Z</time>
      </trkpt>
      <trkpt lat="43.9373" lon="5.42726">
        <ele>347.4</ele>
        <time>2026-05-20T07:56:32.000Z</time>
      </trkpt>
      <trkpt lat="43.93737" lon="5.42734">
        <ele>349</ele>
        <time>2026-05-20T07:56:42.000Z</time>
      </trkpt>
      <trkpt lat="43.93744" lon="5.42741">
        <ele>350.6</ele>
        <time>2026-05-20T07:56:53.000Z</time>
      </trkpt>
      <trkpt lat="43.93748" lon="5.42753">
        <ele>351.7</ele>
        <time>2026-05-20T07:57:02.000Z</time>
      </trkpt>
      <trkpt lat="43.9375" lon="5.42766">
        <ele>352.5</ele>
        <time>2026-05-20T07:57:12.000Z</time>
      </trkpt>
      <trkpt lat="43.93753" lon="5.4278">
        <ele>353.5</ele>
        <time>2026-05-20T07:57:22.000Z</time>
      </trkpt>
      <trkpt lat="43.93755" lon="5.42793">
        <ele>354.1</ele>
        <time>2026-05-20T07:57:32.000Z</time>
      </trkpt>
      <trkpt lat="43.93759" lon="5.42805">
        <ele>355</ele>
        <time>2026-05-20T07:57:40.000Z</time>
      </trkpt>
      <trkpt lat="43.93764" lon="5.42817">
        <ele>356.2</ele>
        <time>2026-05-20T07:57:49.000Z</time>
      </trkpt>
      <trkpt lat="43.93767" lon="5.42829">
        <ele>357.1</ele>
        <time>2026-05-20T07:57:59.000Z</time>
      </trkpt>
      <trkpt lat="43.93772" lon="5.42841">
        <ele>358.3</ele>
        <time>2026-05-20T07:58:09.000Z</time>
      </trkpt>
      <trkpt lat="43.93779" lon="5.42851">
        <ele>359.9</ele>
        <time>2026-05-20T07:58:19.000Z</time>
      </trkpt>
      <trkpt lat="43.93785" lon="5.42862">
        <ele>361.6</ele>
        <time>2026-05-20T07:58:32.000Z</time>
      </trkpt>
      <trkpt lat="43.93791" lon="5.42873">
        <ele>363</ele>
        <time>2026-05-20T07:58:42.000Z</time>
      </trkpt>
      <trkpt lat="43.93797" lon="5.42882">
        <ele>364.4</ele>
        <time>2026-05-20T07:58:52.000Z</time>
      </trkpt>
      <trkpt lat="43.93805" lon="5.42892">
        <ele>365.8</ele>
        <time>2026-05-20T07:59:02.000Z</time>
      </trkpt>
      <trkpt lat="43.93812" lon="5.42901">
        <ele>367.1</ele>
        <time>2026-05-20T07:59:12.000Z</time>
      </trkpt>
      <trkpt lat="43.93818" lon="5.4291">
        <ele>368.2</ele>
        <time>2026-05-20T07:59:24.000Z</time>
      </trkpt>
      <trkpt lat="43.93815" lon="5.42921">
        <ele>367.9</ele>
        <time>2026-05-20T08:00:12.000Z</time>
      </trkpt>
      <trkpt lat="43.93814" lon="5.42933">
        <ele>368.1</ele>
        <time>2026-05-20T08:00:23.000Z</time>
      </trkpt>
      <trkpt lat="43.93811" lon="5.42947">
        <ele>368.1</ele>
        <time>2026-05-20T08:00:33.000Z</time>
      </trkpt>
      <trkpt lat="43.9381" lon="5.42961">
        <ele>368.9</ele>
        <time>2026-05-20T08:00:43.000Z</time>
      </trkpt>
      <trkpt lat="43.9381" lon="5.42975">
        <ele>369.8</ele>
        <time>2026-05-20T08:00:53.000Z</time>
      </trkpt>
      <trkpt lat="43.93811" lon="5.42988">
        <ele>370</ele>
        <time>2026-05-20T08:01:03.000Z</time>
      </trkpt>
      <trkpt lat="43.93812" lon="5.43001">
        <ele>370.2</ele>
        <time>2026-05-20T08:01:13.000Z</time>
      </trkpt>
      <trkpt lat="43.93815" lon="5.43013">
        <ele>370.3</ele>
        <time>2026-05-20T08:01:23.000Z</time>
      </trkpt>
      <trkpt lat="43.9382" lon="5.43024">
        <ele>370.8</ele>
        <time>2026-05-20T08:01:33.000Z</time>
      </trkpt>
      <trkpt lat="43.93825" lon="5.43035">
        <ele>371.5</ele>
        <time>2026-05-20T08:01:44.000Z</time>
      </trkpt>
      <trkpt lat="43.9383" lon="5.43046">
        <ele>372.2</ele>
        <time>2026-05-20T08:01:53.000Z</time>
      </trkpt>
      <trkpt lat="43.93834" lon="5.43057">
        <ele>373</ele>
        <time>2026-05-20T08:02:04.000Z</time>
      </trkpt>
      <trkpt lat="43.9384" lon="5.43067">
        <ele>373.6</ele>
        <time>2026-05-20T08:02:15.000Z</time>
      </trkpt>
      <trkpt lat="43.93845" lon="5.43078">
        <ele>374.1</ele>
        <time>2026-05-20T08:02:25.000Z</time>
      </trkpt>
      <trkpt lat="43.93849" lon="5.43089">
        <ele>374.6</ele>
        <time>2026-05-20T08:02:36.000Z</time>
      </trkpt>
      <trkpt lat="43.93855" lon="5.43101">
        <ele>375.2</ele>
        <time>2026-05-20T08:02:46.000Z</time>
      </trkpt>
      <trkpt lat="43.9386" lon="5.43111">
        <ele>375.9</ele>
        <time>2026-05-20T08:02:57.000Z</time>
      </trkpt>
      <trkpt lat="43.93867" lon="5.43121">
        <ele>377.4</ele>
        <time>2026-05-20T08:03:07.000Z</time>
      </trkpt>
      <trkpt lat="43.93874" lon="5.43131">
        <ele>378.8</ele>
        <time>2026-05-20T08:03:19.000Z</time>
      </trkpt>
      <trkpt lat="43.9388" lon="5.43141">
        <ele>380.1</ele>
        <time>2026-05-20T08:03:29.000Z</time>
      </trkpt>
      <trkpt lat="43.93886" lon="5.4315">
        <ele>381.4</ele>
        <time>2026-05-20T08:03:41.000Z</time>
      </trkpt>
      <trkpt lat="43.93891" lon="5.43161">
        <ele>382.3</ele>
        <time>2026-05-20T08:03:52.000Z</time>
      </trkpt>
      <trkpt lat="43.93895" lon="5.43172">
        <ele>383.2</ele>
        <time>2026-05-20T08:04:03.000Z</time>
      </trkpt>
      <trkpt lat="43.939" lon="5.43183">
        <ele>384.3</ele>
        <time>2026-05-20T08:04:15.000Z</time>
      </trkpt>
      <trkpt lat="43.93905" lon="5.43194">
        <ele>385.4</ele>
        <time>2026-05-20T08:04:26.000Z</time>
      </trkpt>
      <trkpt lat="43.9391" lon="5.43205">
        <ele>386.3</ele>
        <time>2026-05-20T08:04:37.000Z</time>
      </trkpt>
      <trkpt lat="43.93913" lon="5.43217">
        <ele>387.1</ele>
        <time>2026-05-20T08:04:48.000Z</time>
      </trkpt>
      <trkpt lat="43.93915" lon="5.4323">
        <ele>388</ele>
        <time>2026-05-20T08:04:59.000Z</time>
      </trkpt>
      <trkpt lat="43.93916" lon="5.43242">
        <ele>388.7</ele>
        <time>2026-05-20T08:05:10.000Z</time>
      </trkpt>
      <trkpt lat="43.93918" lon="5.43255">
        <ele>389.4</ele>
        <time>2026-05-20T08:05:20.000Z</time>
      </trkpt>
      <trkpt lat="43.9392" lon="5.43268">
        <ele>390.2</ele>
        <time>2026-05-20T08:05:31.000Z</time>
      </trkpt>
      <trkpt lat="43.93923" lon="5.4328">
        <ele>391.2</ele>
        <time>2026-05-20T08:05:41.000Z</time>
      </trkpt>
      <trkpt lat="43.93928" lon="5.43291">
        <ele>392.2</ele>
        <time>2026-05-20T08:05:55.000Z</time>
      </trkpt>
      <trkpt lat="43.93929" lon="5.43304">
        <ele>392.7</ele>
        <time>2026-05-20T08:06:05.000Z</time>
      </trkpt>
      <trkpt lat="43.9393" lon="5.43318">
        <ele>393.2</ele>
        <time>2026-05-20T08:06:16.000Z</time>
      </trkpt>
      <trkpt lat="43.93931" lon="5.43331">
        <ele>393.5</ele>
        <time>2026-05-20T08:06:27.000Z</time>
      </trkpt>
      <trkpt lat="43.9393" lon="5.43344">
        <ele>394</ele>
        <time>2026-05-20T08:06:37.000Z</time>
      </trkpt>
      <trkpt lat="43.93927" lon="5.43357">
        <ele>394.2</ele>
        <time>2026-05-20T08:06:47.000Z</time>
      </trkpt>
      <trkpt lat="43.93922" lon="5.43373">
        <ele>393.7</ele>
        <time>2026-05-20T08:10:39.000Z</time>
      </trkpt>
      <trkpt lat="43.93918" lon="5.43386">
        <ele>393.2</ele>
        <time>2026-05-20T08:10:52.000Z</time>
      </trkpt>
      <trkpt lat="43.93918" lon="5.43398">
        <ele>393.5</ele>
        <time>2026-05-20T08:11:02.000Z</time>
      </trkpt>
      <trkpt lat="43.93917" lon="5.43411">
        <ele>393.8</ele>
        <time>2026-05-20T08:11:12.000Z</time>
      </trkpt>
      <trkpt lat="43.93916" lon="5.43425">
        <ele>394</ele>
        <time>2026-05-20T08:11:23.000Z</time>
      </trkpt>
      <trkpt lat="43.93917" lon="5.43437">
        <ele>394</ele>
        <time>2026-05-20T08:11:34.000Z</time>
      </trkpt>
      <trkpt lat="43.93911" lon="5.43447">
        <ele>393.2</ele>
        <time>2026-05-20T08:11:46.000Z</time>
      </trkpt>
      <trkpt lat="43.93904" lon="5.43454">
        <ele>392.5</ele>
        <time>2026-05-20T08:11:58.000Z</time>
      </trkpt>
      <trkpt lat="43.93901" lon="5.43465">
        <ele>392.6</ele>
        <time>2026-05-20T08:12:14.000Z</time>
      </trkpt>
      <trkpt lat="43.93901" lon="5.43477">
        <ele>393.1</ele>
        <time>2026-05-20T08:12:26.000Z</time>
      </trkpt>
      <trkpt lat="43.93901" lon="5.43488">
        <ele>393.4</ele>
        <time>2026-05-20T08:12:41.000Z</time>
      </trkpt>
      <trkpt lat="43.93907" lon="5.43495">
        <ele>394.1</ele>
        <time>2026-05-20T08:12:53.000Z</time>
      </trkpt>
      <trkpt lat="43.93916" lon="5.43502">
        <ele>395</ele>
        <time>2026-05-20T08:13:06.000Z</time>
      </trkpt>
      <trkpt lat="43.93924" lon="5.43512">
        <ele>396.1</ele>
        <time>2026-05-20T08:13:16.000Z</time>
      </trkpt>
      <trkpt lat="43.9393" lon="5.43522">
        <ele>396.8</ele>
        <time>2026-05-20T08:13:27.000Z</time>
      </trkpt>
      <trkpt lat="43.93933" lon="5.43533">
        <ele>397.2</ele>
        <time>2026-05-20T08:13:40.000Z</time>
      </trkpt>
      <trkpt lat="43.9394" lon="5.43539">
        <ele>398</ele>
        <time>2026-05-20T08:13:55.000Z</time>
      </trkpt>
      <trkpt lat="43.93948" lon="5.43547">
        <ele>399.1</ele>
        <time>2026-05-20T08:14:12.000Z</time>
      </trkpt>
      <trkpt lat="43.93957" lon="5.43552">
        <ele>399.9</ele>
        <time>2026-05-20T08:14:28.000Z</time>
      </trkpt>
      <trkpt lat="43.93966" lon="5.43558">
        <ele>400.4</ele>
        <time>2026-05-20T08:14:41.000Z</time>
      </trkpt>
      <trkpt lat="43.93974" lon="5.43565">
        <ele>400.9</ele>
        <time>2026-05-20T08:15:02.000Z</time>
      </trkpt>
      <trkpt lat="43.9398" lon="5.43575">
        <ele>401.4</ele>
        <time>2026-05-20T08:15:19.000Z</time>
      </trkpt>
      <trkpt lat="43.93986" lon="5.43584">
        <ele>401.9</ele>
        <time>2026-05-20T08:15:40.000Z</time>
      </trkpt>
      <trkpt lat="43.93995" lon="5.43591">
        <ele>402.1</ele>
        <time>2026-05-20T08:15:57.000Z</time>
      </trkpt>
      <trkpt lat="43.94005" lon="5.43593">
        <ele>403.3</ele>
        <time>2026-05-20T08:16:09.000Z</time>
      </trkpt>
      <trkpt lat="43.94013" lon="5.43597">
        <ele>404</ele>
        <time>2026-05-20T08:16:20.000Z</time>
      </trkpt>
      <trkpt lat="43.94021" lon="5.43601">
        <ele>404.7</ele>
        <time>2026-05-20T08:16:30.000Z</time>
      </trkpt>
      <trkpt lat="43.94031" lon="5.43605">
        <ele>405.9</ele>
        <time>2026-05-20T08:16:41.000Z</time>
      </trkpt>
      <trkpt lat="43.9404" lon="5.43608">
        <ele>407</ele>
        <time>2026-05-20T08:17:05.000Z</time>
      </trkpt>
      <trkpt lat="43.94049" lon="5.43611">
        <ele>408</ele>
        <time>2026-05-20T08:17:16.000Z</time>
      </trkpt>
      <trkpt lat="43.94057" lon="5.43615">
        <ele>407.9</ele>
        <time>2026-05-20T08:17:30.000Z</time>
      </trkpt>
      <trkpt lat="43.94066" lon="5.43619">
        <ele>407.4</ele>
        <time>2026-05-20T08:17:52.000Z</time>
      </trkpt>
      <trkpt lat="43.94073" lon="5.43626">
        <ele>406.1</ele>
        <time>2026-05-20T08:18:04.000Z</time>
      </trkpt>
      <trkpt lat="43.9408" lon="5.43633">
        <ele>404.5</ele>
        <time>2026-05-20T08:18:31.000Z</time>
      </trkpt>
      <trkpt lat="43.94089" lon="5.43635">
        <ele>404.7</ele>
        <time>2026-05-20T08:18:42.000Z</time>
      </trkpt>
      <trkpt lat="43.94097" lon="5.43639">
        <ele>404</ele>
        <time>2026-05-20T08:18:56.000Z</time>
      </trkpt>
      <trkpt lat="43.94105" lon="5.43644">
        <ele>403.2</ele>
        <time>2026-05-20T08:19:08.000Z</time>
      </trkpt>
      <trkpt lat="43.94112" lon="5.43651">
        <ele>402.1</ele>
        <time>2026-05-20T08:19:22.000Z</time>
      </trkpt>
      <trkpt lat="43.9412" lon="5.43658">
        <ele>402</ele>
        <time>2026-05-20T08:19:36.000Z</time>
      </trkpt>
      <trkpt lat="43.94128" lon="5.4366">
        <ele>402.9</ele>
        <time>2026-05-20T08:20:13.000Z</time>
      </trkpt>
      <trkpt lat="43.94136" lon="5.43665">
        <ele>402.9</ele>
        <time>2026-05-20T08:20:38.000Z</time>
      </trkpt>
      <trkpt lat="43.94144" lon="5.43668">
        <ele>404.2</ele>
        <time>2026-05-20T08:21:04.000Z</time>
      </trkpt>
      <trkpt lat="43.94153" lon="5.43674">
        <ele>405.2</ele>
        <time>2026-05-20T08:21:15.000Z</time>
      </trkpt>
      <trkpt lat="43.94161" lon="5.43683">
        <ele>405.3</ele>
        <time>2026-05-20T08:21:27.000Z</time>
      </trkpt>
      <trkpt lat="43.94168" lon="5.43691">
        <ele>405.4</ele>
        <time>2026-05-20T08:21:47.000Z</time>
      </trkpt>
      <trkpt lat="43.94175" lon="5.43699">
        <ele>404.7</ele>
        <time>2026-05-20T08:21:58.000Z</time>
      </trkpt>
      <trkpt lat="43.94183" lon="5.43706">
        <ele>403.6</ele>
        <time>2026-05-20T08:22:08.000Z</time>
      </trkpt>
      <trkpt lat="43.9419" lon="5.43713">
        <ele>402.3</ele>
        <time>2026-05-20T08:22:19.000Z</time>
      </trkpt>
      <trkpt lat="43.94198" lon="5.43719">
        <ele>401.1</ele>
        <time>2026-05-20T08:22:34.000Z</time>
      </trkpt>
      <trkpt lat="43.94205" lon="5.43727">
        <ele>399.7</ele>
        <time>2026-05-20T08:22:50.000Z</time>
      </trkpt>
      <trkpt lat="43.94211" lon="5.43737">
        <ele>397.7</ele>
        <time>2026-05-20T08:23:02.000Z</time>
      </trkpt>
      <trkpt lat="43.94219" lon="5.43745">
        <ele>396.3</ele>
        <time>2026-05-20T08:23:13.000Z</time>
      </trkpt>
      <trkpt lat="43.94228" lon="5.4375">
        <ele>396.1</ele>
        <time>2026-05-20T08:23:23.000Z</time>
      </trkpt>
      <trkpt lat="43.94238" lon="5.43754">
        <ele>397.1</ele>
        <time>2026-05-20T08:23:33.000Z</time>
      </trkpt>
      <trkpt lat="43.94246" lon="5.43758">
        <ele>397.9</ele>
        <time>2026-05-20T08:23:43.000Z</time>
      </trkpt>
      <trkpt lat="43.94255" lon="5.43762">
        <ele>398.5</ele>
        <time>2026-05-20T08:23:54.000Z</time>
      </trkpt>
      <trkpt lat="43.94265" lon="5.43766">
        <ele>399.3</ele>
        <time>2026-05-20T08:24:04.000Z</time>
      </trkpt>
      <trkpt lat="43.94274" lon="5.4377">
        <ele>399.8</ele>
        <time>2026-05-20T08:24:14.000Z</time>
      </trkpt>
      <trkpt lat="43.94282" lon="5.43775">
        <ele>399.9</ele>
        <time>2026-05-20T08:24:25.000Z</time>
      </trkpt>
      <trkpt lat="43.9429" lon="5.43781">
        <ele>400.1</ele>
        <time>2026-05-20T08:24:36.000Z</time>
      </trkpt>
      <trkpt lat="43.94294" lon="5.43791">
        <ele>399.7</ele>
        <time>2026-05-20T08:24:48.000Z</time>
      </trkpt>
      <trkpt lat="43.94298" lon="5.43801">
        <ele>399.1</ele>
        <time>2026-05-20T08:25:03.000Z</time>
      </trkpt>
      <trkpt lat="43.94297" lon="5.43812">
        <ele>398.4</ele>
        <time>2026-05-20T08:25:14.000Z</time>
      </trkpt>
      <trkpt lat="43.94301" lon="5.43823">
        <ele>398.1</ele>
        <time>2026-05-20T08:25:32.000Z</time>
      </trkpt>
      <trkpt lat="43.94309" lon="5.4383">
        <ele>398.4</ele>
        <time>2026-05-20T08:25:47.000Z</time>
      </trkpt>
      <trkpt lat="43.94318" lon="5.43834">
        <ele>398.9</ele>
        <time>2026-05-20T08:26:27.000Z</time>
      </trkpt>
      <trkpt lat="43.94328" lon="5.43834">
        <ele>399.6</ele>
        <time>2026-05-20T08:26:37.000Z</time>
      </trkpt>
      <trkpt lat="43.94336" lon="5.43838">
        <ele>400</ele>
        <time>2026-05-20T08:26:53.000Z</time>
      </trkpt>
      <trkpt lat="43.94345" lon="5.43847">
        <ele>400.2</ele>
        <time>2026-05-20T08:30:16.000Z</time>
      </trkpt>
      <trkpt lat="43.94353" lon="5.43852">
        <ele>400.3</ele>
        <time>2026-05-20T08:30:25.000Z</time>
      </trkpt>
      <trkpt lat="43.94363" lon="5.43856">
        <ele>400.6</ele>
        <time>2026-05-20T08:30:35.000Z</time>
      </trkpt>
      <trkpt lat="43.94373" lon="5.43859">
        <ele>401.4</ele>
        <time>2026-05-20T08:30:45.000Z</time>
      </trkpt>
      <trkpt lat="43.94383" lon="5.43862">
        <ele>402.3</ele>
        <time>2026-05-20T08:30:55.000Z</time>
      </trkpt>
      <trkpt lat="43.94392" lon="5.43865">
        <ele>403.3</ele>
        <time>2026-05-20T08:31:05.000Z</time>
      </trkpt>
      <trkpt lat="43.94402" lon="5.43866">
        <ele>404</ele>
        <time>2026-05-20T08:31:16.000Z</time>
      </trkpt>
      <trkpt lat="43.94411" lon="5.43868">
        <ele>404.8</ele>
        <time>2026-05-20T08:31:26.000Z</time>
      </trkpt>
      <trkpt lat="43.94421" lon="5.4387">
        <ele>405.7</ele>
        <time>2026-05-20T08:31:36.000Z</time>
      </trkpt>
      <trkpt lat="43.94431" lon="5.43873">
        <ele>406.4</ele>
        <time>2026-05-20T08:31:46.000Z</time>
      </trkpt>
      <trkpt lat="43.94441" lon="5.43875">
        <ele>407.3</ele>
        <time>2026-05-20T08:31:58.000Z</time>
      </trkpt>
      <trkpt lat="43.94451" lon="5.43878">
        <ele>408.2</ele>
        <time>2026-05-20T08:32:08.000Z</time>
      </trkpt>
      <trkpt lat="43.94461" lon="5.43881">
        <ele>409.1</ele>
        <time>2026-05-20T08:32:18.000Z</time>
      </trkpt>
      <trkpt lat="43.94471" lon="5.43886">
        <ele>409.9</ele>
        <time>2026-05-20T08:32:30.000Z</time>
      </trkpt>
      <trkpt lat="43.94481" lon="5.4389">
        <ele>410.3</ele>
        <time>2026-05-20T08:32:40.000Z</time>
      </trkpt>
      <trkpt lat="43.94491" lon="5.43893">
        <ele>410.9</ele>
        <time>2026-05-20T08:32:51.000Z</time>
      </trkpt>
      <trkpt lat="43.94501" lon="5.43896">
        <ele>411.6</ele>
        <time>2026-05-20T08:33:01.000Z</time>
      </trkpt>
      <trkpt lat="43.9451" lon="5.439">
        <ele>412.9</ele>
        <time>2026-05-20T08:33:11.000Z</time>
      </trkpt>
      <trkpt lat="43.9452" lon="5.43903">
        <ele>414.2</ele>
        <time>2026-05-20T08:33:21.000Z</time>
      </trkpt>
      <trkpt lat="43.9453" lon="5.43907">
        <ele>415.4</ele>
        <time>2026-05-20T08:33:31.000Z</time>
      </trkpt>
      <trkpt lat="43.9454" lon="5.4391">
        <ele>416.5</ele>
        <time>2026-05-20T08:33:43.000Z</time>
      </trkpt>
      <trkpt lat="43.94549" lon="5.43913">
        <ele>417.4</ele>
        <time>2026-05-20T08:33:53.000Z</time>
      </trkpt>
      <trkpt lat="43.94559" lon="5.43917">
        <ele>418.2</ele>
        <time>2026-05-20T08:34:04.000Z</time>
      </trkpt>
      <trkpt lat="43.94569" lon="5.43919">
        <ele>419</ele>
        <time>2026-05-20T08:34:14.000Z</time>
      </trkpt>
      <trkpt lat="43.94578" lon="5.43923">
        <ele>419.8</ele>
        <time>2026-05-20T08:34:24.000Z</time>
      </trkpt>
      <trkpt lat="43.94588" lon="5.43926">
        <ele>420.7</ele>
        <time>2026-05-20T08:34:35.000Z</time>
      </trkpt>
      <trkpt lat="43.94597" lon="5.43931">
        <ele>421.7</ele>
        <time>2026-05-20T08:34:45.000Z</time>
      </trkpt>
      <trkpt lat="43.94602" lon="5.43941">
        <ele>422.8</ele>
        <time>2026-05-20T08:34:58.000Z</time>
      </trkpt>
      <trkpt lat="43.94606" lon="5.43953">
        <ele>424.1</ele>
        <time>2026-05-20T08:35:08.000Z</time>
      </trkpt>
      <trkpt lat="43.94609" lon="5.43966">
        <ele>425.4</ele>
        <time>2026-05-20T08:35:18.000Z</time>
      </trkpt>
      <trkpt lat="43.94613" lon="5.43977">
        <ele>426.5</ele>
        <time>2026-05-20T08:35:29.000Z</time>
      </trkpt>
      <trkpt lat="43.94619" lon="5.43988">
        <ele>427.5</ele>
        <time>2026-05-20T08:35:39.000Z</time>
      </trkpt>
      <trkpt lat="43.94625" lon="5.43998">
        <ele>428.4</ele>
        <time>2026-05-20T08:35:51.000Z</time>
      </trkpt>
      <trkpt lat="43.9463" lon="5.44009">
        <ele>429.5</ele>
        <time>2026-05-20T08:36:00.000Z</time>
      </trkpt>
      <trkpt lat="43.94637" lon="5.44018">
        <ele>430.5</ele>
        <time>2026-05-20T08:36:10.000Z</time>
      </trkpt>
      <trkpt lat="43.94643" lon="5.44029">
        <ele>431.4</ele>
        <time>2026-05-20T08:36:22.000Z</time>
      </trkpt>
      <trkpt lat="43.94648" lon="5.4404">
        <ele>432.5</ele>
        <time>2026-05-20T08:36:32.000Z</time>
      </trkpt>
      <trkpt lat="43.94654" lon="5.4405">
        <ele>433.7</ele>
        <time>2026-05-20T08:36:43.000Z</time>
      </trkpt>
      <trkpt lat="43.9466" lon="5.44059">
        <ele>434.8</ele>
        <time>2026-05-20T08:36:53.000Z</time>
      </trkpt>
      <trkpt lat="43.94665" lon="5.44071">
        <ele>435.9</ele>
        <time>2026-05-20T08:37:04.000Z</time>
      </trkpt>
      <trkpt lat="43.94668" lon="5.44083">
        <ele>437.1</ele>
        <time>2026-05-20T08:37:15.000Z</time>
      </trkpt>
      <trkpt lat="43.94672" lon="5.44096">
        <ele>438.2</ele>
        <time>2026-05-20T08:37:23.000Z</time>
      </trkpt>
      <trkpt lat="43.94676" lon="5.44107">
        <ele>439.1</ele>
        <time>2026-05-20T08:37:32.000Z</time>
      </trkpt>
      <trkpt lat="43.94681" lon="5.44118">
        <ele>440</ele>
        <time>2026-05-20T08:37:42.000Z</time>
      </trkpt>
      <trkpt lat="43.94687" lon="5.44127">
        <ele>440.9</ele>
        <time>2026-05-20T08:37:52.000Z</time>
      </trkpt>
      <trkpt lat="43.94694" lon="5.44136">
        <ele>441.8</ele>
        <time>2026-05-20T08:38:00.000Z</time>
      </trkpt>
      <trkpt lat="43.947" lon="5.44145">
        <ele>443.3</ele>
        <time>2026-05-20T08:38:12.000Z</time>
      </trkpt>
      <trkpt lat="43.94708" lon="5.4415">
        <ele>444.6</ele>
        <time>2026-05-20T08:38:22.000Z</time>
      </trkpt>
      <trkpt lat="43.94718" lon="5.44149">
        <ele>445.5</ele>
        <time>2026-05-20T08:38:34.000Z</time>
      </trkpt>
      <trkpt lat="43.94726" lon="5.44144">
        <ele>446.5</ele>
        <time>2026-05-20T08:38:45.000Z</time>
      </trkpt>
      <trkpt lat="43.94734" lon="5.44136">
        <ele>447.5</ele>
        <time>2026-05-20T08:38:57.000Z</time>
      </trkpt>
      <trkpt lat="43.9474" lon="5.44128">
        <ele>448</ele>
        <time>2026-05-20T08:39:07.000Z</time>
      </trkpt>
      <trkpt lat="43.94746" lon="5.44118">
        <ele>448.5</ele>
        <time>2026-05-20T08:39:17.000Z</time>
      </trkpt>
      <trkpt lat="43.9475" lon="5.44107">
        <ele>449.3</ele>
        <time>2026-05-20T08:39:28.000Z</time>
      </trkpt>
      <trkpt lat="43.94754" lon="5.44095">
        <ele>450.8</ele>
        <time>2026-05-20T08:39:38.000Z</time>
      </trkpt>
      <trkpt lat="43.94757" lon="5.44081">
        <ele>452</ele>
        <time>2026-05-20T08:39:48.000Z</time>
      </trkpt>
      <trkpt lat="43.94759" lon="5.44067">
        <ele>453</ele>
        <time>2026-05-20T08:39:59.000Z</time>
      </trkpt>
      <trkpt lat="43.94763" lon="5.44055">
        <ele>454.3</ele>
        <time>2026-05-20T08:40:10.000Z</time>
      </trkpt>
      <trkpt lat="43.9477" lon="5.44046">
        <ele>455.6</ele>
        <time>2026-05-20T08:40:22.000Z</time>
      </trkpt>
      <trkpt lat="43.9478" lon="5.44042">
        <ele>457.3</ele>
        <time>2026-05-20T08:40:30.000Z</time>
      </trkpt>
      <trkpt lat="43.9479" lon="5.44042">
        <ele>459.1</ele>
        <time>2026-05-20T08:40:41.000Z</time>
      </trkpt>
      <trkpt lat="43.948" lon="5.44043">
        <ele>461</ele>
        <time>2026-05-20T08:40:54.000Z</time>
      </trkpt>
      <trkpt lat="43.94809" lon="5.44049">
        <ele>462.8</ele>
        <time>2026-05-20T08:41:06.000Z</time>
      </trkpt>
      <trkpt lat="43.94817" lon="5.44058">
        <ele>464.8</ele>
        <time>2026-05-20T08:41:17.000Z</time>
      </trkpt>
      <trkpt lat="43.94824" lon="5.44067">
        <ele>466.4</ele>
        <time>2026-05-20T08:41:30.000Z</time>
      </trkpt>
      <trkpt lat="43.94829" lon="5.44077">
        <ele>467.3</ele>
        <time>2026-05-20T08:41:38.000Z</time>
      </trkpt>
      <trkpt lat="43.9483" lon="5.44089">
        <ele>467.5</ele>
        <time>2026-05-20T08:41:46.000Z</time>
      </trkpt>
      <trkpt lat="43.94828" lon="5.44102">
        <ele>467.8</ele>
        <time>2026-05-20T08:41:56.000Z</time>
      </trkpt>
      <trkpt lat="43.94827" lon="5.44116">
        <ele>468.4</ele>
        <time>2026-05-20T08:42:06.000Z</time>
      </trkpt>
      <trkpt lat="43.94829" lon="5.44128">
        <ele>469.4</ele>
        <time>2026-05-20T08:42:23.000Z</time>
      </trkpt>
      <trkpt lat="43.94834" lon="5.4414">
        <ele>471.1</ele>
        <time>2026-05-20T08:46:37.000Z</time>
      </trkpt>
      <trkpt lat="43.94842" lon="5.44147">
        <ele>472.6</ele>
        <time>2026-05-20T08:46:46.000Z</time>
      </trkpt>
      <trkpt lat="43.9485" lon="5.44154">
        <ele>474.3</ele>
        <time>2026-05-20T08:47:07.000Z</time>
      </trkpt>
      <trkpt lat="43.94859" lon="5.44161">
        <ele>476.2</ele>
        <time>2026-05-20T08:47:17.000Z</time>
      </trkpt>
      <trkpt lat="43.94867" lon="5.44168">
        <ele>477.9</ele>
        <time>2026-05-20T08:47:27.000Z</time>
      </trkpt>
      <trkpt lat="43.94877" lon="5.4417">
        <ele>479.5</ele>
        <time>2026-05-20T08:47:40.000Z</time>
      </trkpt>
      <trkpt lat="43.94886" lon="5.44172">
        <ele>481.1</ele>
        <time>2026-05-20T08:47:51.000Z</time>
      </trkpt>
      <trkpt lat="43.94895" lon="5.44172">
        <ele>482.5</ele>
        <time>2026-05-20T08:48:07.000Z</time>
      </trkpt>
      <trkpt lat="43.94904" lon="5.4417">
        <ele>483.5</ele>
        <time>2026-05-20T08:48:20.000Z</time>
      </trkpt>
      <trkpt lat="43.94911" lon="5.44163">
        <ele>484.2</ele>
        <time>2026-05-20T08:48:30.000Z</time>
      </trkpt>
      <trkpt lat="43.94917" lon="5.44152">
        <ele>485</ele>
        <time>2026-05-20T08:48:41.000Z</time>
      </trkpt>
      <trkpt lat="43.94921" lon="5.4414">
        <ele>485.8</ele>
        <time>2026-05-20T08:48:51.000Z</time>
      </trkpt>
      <trkpt lat="43.94926" lon="5.44129">
        <ele>486.6</ele>
        <time>2026-05-20T08:48:59.000Z</time>
      </trkpt>
      <trkpt lat="43.9493" lon="5.44117">
        <ele>487.5</ele>
        <time>2026-05-20T08:49:12.000Z</time>
      </trkpt>
      <trkpt lat="43.94932" lon="5.44104">
        <ele>488.6</ele>
        <time>2026-05-20T08:49:23.000Z</time>
      </trkpt>
      <trkpt lat="43.94931" lon="5.44091">
        <ele>489.4</ele>
        <time>2026-05-20T08:49:33.000Z</time>
      </trkpt>
      <trkpt lat="43.94929" lon="5.44078">
        <ele>490.2</ele>
        <time>2026-05-20T08:49:43.000Z</time>
      </trkpt>
      <trkpt lat="43.9493" lon="5.44067">
        <ele>491.4</ele>
        <time>2026-05-20T08:49:56.000Z</time>
      </trkpt>
      <trkpt lat="43.94938" lon="5.44062">
        <ele>493.7</ele>
        <time>2026-05-20T08:50:06.000Z</time>
      </trkpt>
      <trkpt lat="43.94947" lon="5.44066">
        <ele>495.7</ele>
        <time>2026-05-20T08:50:21.000Z</time>
      </trkpt>
      <trkpt lat="43.94957" lon="5.44065">
        <ele>498.1</ele>
        <time>2026-05-20T08:50:33.000Z</time>
      </trkpt>
      <trkpt lat="43.94959" lon="5.44054">
        <ele>499.9</ele>
        <time>2026-05-20T08:50:47.000Z</time>
      </trkpt>
      <trkpt lat="43.94958" lon="5.44041">
        <ele>501.2</ele>
        <time>2026-05-20T08:50:57.000Z</time>
      </trkpt>
      <trkpt lat="43.94955" lon="5.44028">
        <ele>502.1</ele>
        <time>2026-05-20T08:51:08.000Z</time>
      </trkpt>
      <trkpt lat="43.94952" lon="5.44015">
        <ele>503.1</ele>
        <time>2026-05-20T08:51:18.000Z</time>
      </trkpt>
      <trkpt lat="43.94949" lon="5.44003">
        <ele>504</ele>
        <time>2026-05-20T08:51:30.000Z</time>
      </trkpt>
      <trkpt lat="43.94947" lon="5.4399">
        <ele>505.1</ele>
        <time>2026-05-20T08:51:42.000Z</time>
      </trkpt>
      <trkpt lat="43.94945" lon="5.43978">
        <ele>506.2</ele>
        <time>2026-05-20T08:51:52.000Z</time>
      </trkpt>
      <trkpt lat="43.94942" lon="5.43965">
        <ele>507</ele>
        <time>2026-05-20T08:52:03.000Z</time>
      </trkpt>
      <trkpt lat="43.94939" lon="5.43953">
        <ele>507.5</ele>
        <time>2026-05-20T08:52:11.000Z</time>
      </trkpt>
      <trkpt lat="43.94938" lon="5.43939">
        <ele>508.2</ele>
        <time>2026-05-20T08:52:21.000Z</time>
      </trkpt>
      <trkpt lat="43.94939" lon="5.43928">
        <ele>509</ele>
        <time>2026-05-20T08:52:32.000Z</time>
      </trkpt>
      <trkpt lat="43.94944" lon="5.43919">
        <ele>510.9</ele>
        <time>2026-05-20T08:52:42.000Z</time>
      </trkpt>
      <trkpt lat="43.94953" lon="5.43917">
        <ele>512.5</ele>
        <time>2026-05-20T08:52:56.000Z</time>
      </trkpt>
      <trkpt lat="43.94962" lon="5.43915">
        <ele>513.6</ele>
        <time>2026-05-20T08:53:14.000Z</time>
      </trkpt>
      <trkpt lat="43.94971" lon="5.43916">
        <ele>515.3</ele>
        <time>2026-05-20T08:55:48.000Z</time>
      </trkpt>
      <trkpt lat="43.94979" lon="5.43914">
        <ele>516.7</ele>
        <time>2026-05-20T08:55:55.000Z</time>
      </trkpt>
      <trkpt lat="43.94989" lon="5.43914">
        <ele>518.6</ele>
        <time>2026-05-20T08:56:06.000Z</time>
      </trkpt>
      <trkpt lat="43.94998" lon="5.43913">
        <ele>520.3</ele>
        <time>2026-05-20T08:56:17.000Z</time>
      </trkpt>
      <trkpt lat="43.95008" lon="5.43912">
        <ele>521.9</ele>
        <time>2026-05-20T08:56:27.000Z</time>
      </trkpt>
      <trkpt lat="43.95017" lon="5.43911">
        <ele>523.5</ele>
        <time>2026-05-20T08:56:38.000Z</time>
      </trkpt>
      <trkpt lat="43.95026" lon="5.43907">
        <ele>524.5</ele>
        <time>2026-05-20T08:56:51.000Z</time>
      </trkpt>
      <trkpt lat="43.95036" lon="5.43906">
        <ele>526.6</ele>
        <time>2026-05-20T08:57:05.000Z</time>
      </trkpt>
      <trkpt lat="43.95045" lon="5.43906">
        <ele>528.7</ele>
        <time>2026-05-20T08:57:16.000Z</time>
      </trkpt>
      <trkpt lat="43.95054" lon="5.43906">
        <ele>530.7</ele>
        <time>2026-05-20T08:57:27.000Z</time>
      </trkpt>
      <trkpt lat="43.95063" lon="5.43906">
        <ele>532.2</ele>
        <time>2026-05-20T08:57:40.000Z</time>
      </trkpt>
      <trkpt lat="43.95073" lon="5.43908">
        <ele>534.3</ele>
        <time>2026-05-20T08:57:54.000Z</time>
      </trkpt>
      <trkpt lat="43.95083" lon="5.43908">
        <ele>535.9</ele>
        <time>2026-05-20T08:58:07.000Z</time>
      </trkpt>
      <trkpt lat="43.95093" lon="5.43909">
        <ele>537.1</ele>
        <time>2026-05-20T08:58:21.000Z</time>
      </trkpt>
      <trkpt lat="43.95103" lon="5.43909">
        <ele>538.2</ele>
        <time>2026-05-20T08:58:33.000Z</time>
      </trkpt>
      <trkpt lat="43.95112" lon="5.43911">
        <ele>539.7</ele>
        <time>2026-05-20T08:58:44.000Z</time>
      </trkpt>
      <trkpt lat="43.95121" lon="5.43914">
        <ele>541.7</ele>
        <time>2026-05-20T08:58:55.000Z</time>
      </trkpt>
      <trkpt lat="43.9513" lon="5.4392">
        <ele>544.4</ele>
        <time>2026-05-20T08:59:07.000Z</time>
      </trkpt>
      <trkpt lat="43.95139" lon="5.43925">
        <ele>546.8</ele>
        <time>2026-05-20T08:59:22.000Z</time>
      </trkpt>
      <trkpt lat="43.95148" lon="5.43928">
        <ele>548.6</ele>
        <time>2026-05-20T08:59:35.000Z</time>
      </trkpt>
      <trkpt lat="43.95158" lon="5.43931">
        <ele>550.6</ele>
        <time>2026-05-20T08:59:49.000Z</time>
      </trkpt>
      <trkpt lat="43.95168" lon="5.43934">
        <ele>552.2</ele>
        <time>2026-05-20T09:00:00.000Z</time>
      </trkpt>
      <trkpt lat="43.95177" lon="5.43935">
        <ele>553</ele>
        <time>2026-05-20T09:00:11.000Z</time>
      </trkpt>
      <trkpt lat="43.95186" lon="5.43936">
        <ele>554.2</ele>
        <time>2026-05-20T09:00:26.000Z</time>
      </trkpt>
      <trkpt lat="43.95193" lon="5.43939">
        <ele>555.8</ele>
        <time>2026-05-20T09:00:38.000Z</time>
      </trkpt>
      <trkpt lat="43.95192" lon="5.43947">
        <ele>558.8</ele>
        <time>2026-05-20T09:02:45.000Z</time>
      </trkpt>
      <trkpt lat="43.95199" lon="5.43946">
        <ele>559.5</ele>
        <time>2026-05-20T09:05:47.000Z</time>
      </trkpt>
      <trkpt lat="43.95208" lon="5.43945">
        <ele>561.2</ele>
        <time>2026-05-20T09:06:05.000Z</time>
      </trkpt>
      <trkpt lat="43.95217" lon="5.43947">
        <ele>563.8</ele>
        <time>2026-05-20T09:06:18.000Z</time>
      </trkpt>
      <trkpt lat="43.95226" lon="5.43949">
        <ele>565.9</ele>
        <time>2026-05-20T09:06:34.000Z</time>
      </trkpt>
      <trkpt lat="43.95236" lon="5.43952">
        <ele>567.5</ele>
        <time>2026-05-20T09:06:48.000Z</time>
      </trkpt>
      <trkpt lat="43.95246" lon="5.43955">
        <ele>569.5</ele>
        <time>2026-05-20T09:07:03.000Z</time>
      </trkpt>
      <trkpt lat="43.95255" lon="5.43958">
        <ele>571.4</ele>
        <time>2026-05-20T09:07:16.000Z</time>
      </trkpt>
      <trkpt lat="43.95264" lon="5.43963">
        <ele>573.5</ele>
        <time>2026-05-20T09:07:29.000Z</time>
      </trkpt>
      <trkpt lat="43.95274" lon="5.43967">
        <ele>575.8</ele>
        <time>2026-05-20T09:07:42.000Z</time>
      </trkpt>
      <trkpt lat="43.95284" lon="5.43967">
        <ele>576.4</ele>
        <time>2026-05-20T09:07:58.000Z</time>
      </trkpt>
      <trkpt lat="43.95294" lon="5.43967">
        <ele>577.2</ele>
        <time>2026-05-20T09:08:09.000Z</time>
      </trkpt>
      <trkpt lat="43.95305" lon="5.43969">
        <ele>578.4</ele>
        <time>2026-05-20T09:08:19.000Z</time>
      </trkpt>
      <trkpt lat="43.95314" lon="5.43971">
        <ele>580</ele>
        <time>2026-05-20T09:08:30.000Z</time>
      </trkpt>
      <trkpt lat="43.95323" lon="5.43972">
        <ele>581.4</ele>
        <time>2026-05-20T09:08:41.000Z</time>
      </trkpt>
      <trkpt lat="43.95333" lon="5.43973">
        <ele>582.4</ele>
        <time>2026-05-20T09:08:54.000Z</time>
      </trkpt>
      <trkpt lat="43.95343" lon="5.43975">
        <ele>584.3</ele>
        <time>2026-05-20T09:09:07.000Z</time>
      </trkpt>
      <trkpt lat="43.95352" lon="5.43976">
        <ele>586.2</ele>
        <time>2026-05-20T09:09:18.000Z</time>
      </trkpt>
      <trkpt lat="43.95361" lon="5.43978">
        <ele>588.2</ele>
        <time>2026-05-20T09:09:30.000Z</time>
      </trkpt>
      <trkpt lat="43.9537" lon="5.43981">
        <ele>589.8</ele>
        <time>2026-05-20T09:09:44.000Z</time>
      </trkpt>
      <trkpt lat="43.9538" lon="5.43984">
        <ele>591.5</ele>
        <time>2026-05-20T09:09:57.000Z</time>
      </trkpt>
      <trkpt lat="43.95388" lon="5.43988">
        <ele>593.6</ele>
        <time>2026-05-20T09:10:10.000Z</time>
      </trkpt>
      <trkpt lat="43.95397" lon="5.43991">
        <ele>595.6</ele>
        <time>2026-05-20T09:10:21.000Z</time>
      </trkpt>
      <trkpt lat="43.95406" lon="5.43992">
        <ele>597.1</ele>
        <time>2026-05-20T09:10:33.000Z</time>
      </trkpt>
      <trkpt lat="43.95415" lon="5.43995">
        <ele>599</ele>
        <time>2026-05-20T09:10:45.000Z</time>
      </trkpt>
      <trkpt lat="43.95424" lon="5.43998">
        <ele>600.9</ele>
        <time>2026-05-20T09:10:58.000Z</time>
      </trkpt>
      <trkpt lat="43.95434" lon="5.44">
        <ele>602.7</ele>
        <time>2026-05-20T09:11:11.000Z</time>
      </trkpt>
      <trkpt lat="43.95444" lon="5.44003">
        <ele>604.7</ele>
        <time>2026-05-20T09:11:24.000Z</time>
      </trkpt>
      <trkpt lat="43.95454" lon="5.44006">
        <ele>606.8</ele>
        <time>2026-05-20T09:11:35.000Z</time>
      </trkpt>
      <trkpt lat="43.95463" lon="5.44009">
        <ele>608.6</ele>
        <time>2026-05-20T09:11:48.000Z</time>
      </trkpt>
      <trkpt lat="43.95472" lon="5.44011">
        <ele>610</ele>
        <time>2026-05-20T09:11:58.000Z</time>
      </trkpt>
      <trkpt lat="43.95481" lon="5.44012">
        <ele>611.6</ele>
        <time>2026-05-20T09:12:09.000Z</time>
      </trkpt>
      <trkpt lat="43.95491" lon="5.44013">
        <ele>613.2</ele>
        <time>2026-05-20T09:12:20.000Z</time>
      </trkpt>
      <trkpt lat="43.95501" lon="5.44014">
        <ele>614.6</ele>
        <time>2026-05-20T09:12:33.000Z</time>
      </trkpt>
      <trkpt lat="43.9551" lon="5.44014">
        <ele>614.4</ele>
        <time>2026-05-20T09:12:43.000Z</time>
      </trkpt>
      <trkpt lat="43.95519" lon="5.44018">
        <ele>615.6</ele>
        <time>2026-05-20T09:12:54.000Z</time>
      </trkpt>
      <trkpt lat="43.95527" lon="5.44023">
        <ele>618</ele>
        <time>2026-05-20T09:13:05.000Z</time>
      </trkpt>
      <trkpt lat="43.95534" lon="5.4403">
        <ele>620.1</ele>
        <time>2026-05-20T09:13:16.000Z</time>
      </trkpt>
      <trkpt lat="43.95541" lon="5.44038">
        <ele>622</ele>
        <time>2026-05-20T09:13:27.000Z</time>
      </trkpt>
      <trkpt lat="43.95549" lon="5.44046">
        <ele>623.8</ele>
        <time>2026-05-20T09:13:39.000Z</time>
      </trkpt>
      <trkpt lat="43.95556" lon="5.44054">
        <ele>625.2</ele>
        <time>2026-05-20T09:13:48.000Z</time>
      </trkpt>
      <trkpt lat="43.95563" lon="5.4406">
        <ele>626.9</ele>
        <time>2026-05-20T09:14:02.000Z</time>
      </trkpt>
      <trkpt lat="43.95572" lon="5.44067">
        <ele>628.6</ele>
        <time>2026-05-20T09:14:14.000Z</time>
      </trkpt>
      <trkpt lat="43.9558" lon="5.44075">
        <ele>630.6</ele>
        <time>2026-05-20T09:14:27.000Z</time>
      </trkpt>
      <trkpt lat="43.95587" lon="5.44083">
        <ele>632.6</ele>
        <time>2026-05-20T09:14:41.000Z</time>
      </trkpt>
      <trkpt lat="43.95594" lon="5.4409">
        <ele>634.6</ele>
        <time>2026-05-20T09:14:52.000Z</time>
      </trkpt>
      <trkpt lat="43.95602" lon="5.44096">
        <ele>636.2</ele>
        <time>2026-05-20T09:15:08.000Z</time>
      </trkpt>
      <trkpt lat="43.9561" lon="5.44102">
        <ele>637</ele>
        <time>2026-05-20T09:15:20.000Z</time>
      </trkpt>
      <trkpt lat="43.95619" lon="5.44107">
        <ele>638.8</ele>
        <time>2026-05-20T09:15:32.000Z</time>
      </trkpt>
      <trkpt lat="43.95629" lon="5.44113">
        <ele>641.4</ele>
        <time>2026-05-20T09:21:57.000Z</time>
      </trkpt>
      <trkpt lat="43.95638" lon="5.44117">
        <ele>643.1</ele>
        <time>2026-05-20T09:24:18.000Z</time>
      </trkpt>
      <trkpt lat="43.95647" lon="5.44122">
        <ele>644.6</ele>
        <time>2026-05-20T09:24:30.000Z</time>
      </trkpt>
      <trkpt lat="43.95656" lon="5.44129">
        <ele>646.3</ele>
        <time>2026-05-20T09:24:42.000Z</time>
      </trkpt>
      <trkpt lat="43.95664" lon="5.44136">
        <ele>648.1</ele>
        <time>2026-05-20T09:24:52.000Z</time>
      </trkpt>
      <trkpt lat="43.95672" lon="5.44143">
        <ele>651.2</ele>
        <time>2026-05-20T09:25:03.000Z</time>
      </trkpt>
      <trkpt lat="43.95679" lon="5.44149">
        <ele>654.1</ele>
        <time>2026-05-20T09:25:15.000Z</time>
      </trkpt>
      <trkpt lat="43.95689" lon="5.44152">
        <ele>655.6</ele>
        <time>2026-05-20T09:25:27.000Z</time>
      </trkpt>
      <trkpt lat="43.95698" lon="5.44153">
        <ele>656.7</ele>
        <time>2026-05-20T09:25:41.000Z</time>
      </trkpt>
      <trkpt lat="43.95707" lon="5.44153">
        <ele>658.2</ele>
        <time>2026-05-20T09:25:52.000Z</time>
      </trkpt>
      <trkpt lat="43.95716" lon="5.44152">
        <ele>659.4</ele>
        <time>2026-05-20T09:26:03.000Z</time>
      </trkpt>
      <trkpt lat="43.95725" lon="5.44152">
        <ele>660.9</ele>
        <time>2026-05-20T09:26:16.000Z</time>
      </trkpt>
      <trkpt lat="43.95734" lon="5.44149">
        <ele>662.1</ele>
        <time>2026-05-20T09:26:29.000Z</time>
      </trkpt>
      <trkpt lat="43.95743" lon="5.4415">
        <ele>664.1</ele>
        <time>2026-05-20T09:26:44.000Z</time>
      </trkpt>
      <trkpt lat="43.95753" lon="5.4415">
        <ele>666.1</ele>
        <time>2026-05-20T09:26:58.000Z</time>
      </trkpt>
      <trkpt lat="43.95763" lon="5.44149">
        <ele>667.9</ele>
        <time>2026-05-20T09:27:10.000Z</time>
      </trkpt>
      <trkpt lat="43.95772" lon="5.44148">
        <ele>669.5</ele>
        <time>2026-05-20T09:27:24.000Z</time>
      </trkpt>
      <trkpt lat="43.95782" lon="5.44149">
        <ele>671.7</ele>
        <time>2026-05-20T09:27:39.000Z</time>
      </trkpt>
      <trkpt lat="43.95791" lon="5.44148">
        <ele>673.5</ele>
        <time>2026-05-20T09:27:51.000Z</time>
      </trkpt>
      <trkpt lat="43.95799" lon="5.44148">
        <ele>675.2</ele>
        <time>2026-05-20T09:28:04.000Z</time>
      </trkpt>
      <trkpt lat="43.95808" lon="5.44147">
        <ele>677</ele>
        <time>2026-05-20T09:28:15.000Z</time>
      </trkpt>
      <trkpt lat="43.95817" lon="5.44148">
        <ele>678.8</ele>
        <time>2026-05-20T09:28:27.000Z</time>
      </trkpt>
      <trkpt lat="43.95827" lon="5.4415">
        <ele>681</ele>
        <time>2026-05-20T09:28:40.000Z</time>
      </trkpt>
      <trkpt lat="43.95836" lon="5.44151">
        <ele>682.5</ele>
        <time>2026-05-20T09:28:53.000Z</time>
      </trkpt>
      <trkpt lat="43.95846" lon="5.44151">
        <ele>683.2</ele>
        <time>2026-05-20T09:29:06.000Z</time>
      </trkpt>
      <trkpt lat="43.95855" lon="5.44151">
        <ele>683.9</ele>
        <time>2026-05-20T09:29:18.000Z</time>
      </trkpt>
      <trkpt lat="43.95865" lon="5.44149">
        <ele>684.8</ele>
        <time>2026-05-20T09:29:29.000Z</time>
      </trkpt>
      <trkpt lat="43.95874" lon="5.44151">
        <ele>686.5</ele>
        <time>2026-05-20T09:29:45.000Z</time>
      </trkpt>
      <trkpt lat="43.95883" lon="5.44153">
        <ele>688</ele>
        <time>2026-05-20T09:29:54.000Z</time>
      </trkpt>
      <trkpt lat="43.95891" lon="5.44158">
        <ele>689.3</ele>
        <time>2026-05-20T09:30:05.000Z</time>
      </trkpt>
      <trkpt lat="43.959" lon="5.44161">
        <ele>690.4</ele>
        <time>2026-05-20T09:30:19.000Z</time>
      </trkpt>
      <trkpt lat="43.9591" lon="5.44161">
        <ele>691.6</ele>
        <time>2026-05-20T09:30:31.000Z</time>
      </trkpt>
      <trkpt lat="43.95919" lon="5.44162">
        <ele>692.8</ele>
        <time>2026-05-20T09:30:44.000Z</time>
      </trkpt>
      <trkpt lat="43.95928" lon="5.44165">
        <ele>694.1</ele>
        <time>2026-05-20T09:30:54.000Z</time>
      </trkpt>
      <trkpt lat="43.95937" lon="5.44166">
        <ele>695.6</ele>
        <time>2026-05-20T09:31:06.000Z</time>
      </trkpt>
      <trkpt lat="43.95946" lon="5.44168">
        <ele>697.3</ele>
        <time>2026-05-20T09:31:17.000Z</time>
      </trkpt>
      <trkpt lat="43.95955" lon="5.4417">
        <ele>698.7</ele>
        <time>2026-05-20T09:31:30.000Z</time>
      </trkpt>
      <trkpt lat="43.95964" lon="5.44172">
        <ele>700.1</ele>
        <time>2026-05-20T09:31:54.000Z</time>
      </trkpt>
      <trkpt lat="43.95973" lon="5.44175">
        <ele>701.4</ele>
        <time>2026-05-20T09:32:02.000Z</time>
      </trkpt>
      <trkpt lat="43.95982" lon="5.44178">
        <ele>702.6</ele>
        <time>2026-05-20T09:32:13.000Z</time>
      </trkpt>
      <trkpt lat="43.95991" lon="5.44179">
        <ele>703.8</ele>
        <time>2026-05-20T09:32:24.000Z</time>
      </trkpt>
      <trkpt lat="43.96001" lon="5.44182">
        <ele>705.2</ele>
        <time>2026-05-20T09:32:35.000Z</time>
      </trkpt>
      <trkpt lat="43.96011" lon="5.44188">
        <ele>707</ele>
        <time>2026-05-20T09:32:49.000Z</time>
      </trkpt>
      <trkpt lat="43.9602" lon="5.44197">
        <ele>709</ele>
        <time>2026-05-20T09:33:02.000Z</time>
      </trkpt>
      <trkpt lat="43.96029" lon="5.44204">
        <ele>710.1</ele>
        <time>2026-05-20T09:33:15.000Z</time>
      </trkpt>
      <trkpt lat="43.96037" lon="5.44209">
        <ele>710.8</ele>
        <time>2026-05-20T09:33:26.000Z</time>
      </trkpt>
      <trkpt lat="43.96046" lon="5.44212">
        <ele>711.9</ele>
        <time>2026-05-20T09:33:39.000Z</time>
      </trkpt>
      <trkpt lat="43.96053" lon="5.44211">
        <ele>712.5</ele>
        <time>2026-05-20T09:33:50.000Z</time>
      </trkpt>
      <trkpt lat="43.96046" lon="5.44211">
        <ele>711.8</ele>
        <time>2026-05-20T09:40:34.000Z</time>
      </trkpt>
      <trkpt lat="43.96037" lon="5.44217">
        <ele>711.2</ele>
        <time>2026-05-20T09:40:49.000Z</time>
      </trkpt>
      <trkpt lat="43.9603" lon="5.44225">
        <ele>710.7</ele>
        <time>2026-05-20T09:41:04.000Z</time>
      </trkpt>
      <trkpt lat="43.96022" lon="5.44234">
        <ele>711.6</ele>
        <time>2026-05-20T09:41:14.000Z</time>
      </trkpt>
      <trkpt lat="43.96014" lon="5.4424">
        <ele>712.3</ele>
        <time>2026-05-20T09:41:26.000Z</time>
      </trkpt>
      <trkpt lat="43.96007" lon="5.44249">
        <ele>713.3</ele>
        <time>2026-05-20T09:41:39.000Z</time>
      </trkpt>
      <trkpt lat="43.95998" lon="5.44255">
        <ele>713.9</ele>
        <time>2026-05-20T09:41:51.000Z</time>
      </trkpt>
      <trkpt lat="43.95991" lon="5.44262">
        <ele>715.1</ele>
        <time>2026-05-20T09:42:05.000Z</time>
      </trkpt>
      <trkpt lat="43.95982" lon="5.44267">
        <ele>715.7</ele>
        <time>2026-05-20T09:42:19.000Z</time>
      </trkpt>
      <trkpt lat="43.95974" lon="5.44274">
        <ele>716.4</ele>
        <time>2026-05-20T09:42:30.000Z</time>
      </trkpt>
      <trkpt lat="43.95966" lon="5.44278">
        <ele>716.8</ele>
        <time>2026-05-20T09:42:43.000Z</time>
      </trkpt>
      <trkpt lat="43.95958" lon="5.44283">
        <ele>717.5</ele>
        <time>2026-05-20T09:42:51.000Z</time>
      </trkpt>
      <trkpt lat="43.95951" lon="5.44289">
        <ele>718.2</ele>
        <time>2026-05-20T09:43:01.000Z</time>
      </trkpt>
      <trkpt lat="43.95942" lon="5.44294">
        <ele>718.8</ele>
        <time>2026-05-20T09:43:14.000Z</time>
      </trkpt>
      <trkpt lat="43.95934" lon="5.443">
        <ele>719.6</ele>
        <time>2026-05-20T09:43:29.000Z</time>
      </trkpt>
      <trkpt lat="43.95926" lon="5.44305">
        <ele>720.3</ele>
        <time>2026-05-20T09:43:40.000Z</time>
      </trkpt>
      <trkpt lat="43.95917" lon="5.4431">
        <ele>720.9</ele>
        <time>2026-05-20T09:43:50.000Z</time>
      </trkpt>
      <trkpt lat="43.95908" lon="5.44313">
        <ele>721.4</ele>
        <time>2026-05-20T09:44:02.000Z</time>
      </trkpt>
      <trkpt lat="43.95899" lon="5.44316">
        <ele>721.6</ele>
        <time>2026-05-20T09:44:13.000Z</time>
      </trkpt>
      <trkpt lat="43.95891" lon="5.44319">
        <ele>721.9</ele>
        <time>2026-05-20T09:44:24.000Z</time>
      </trkpt>
      <trkpt lat="43.95882" lon="5.44321">
        <ele>721.9</ele>
        <time>2026-05-20T09:44:39.000Z</time>
      </trkpt>
      <trkpt lat="43.95873" lon="5.44325">
        <ele>722.2</ele>
        <time>2026-05-20T09:44:49.000Z</time>
      </trkpt>
      <trkpt lat="43.95864" lon="5.44326">
        <ele>721.9</ele>
        <time>2026-05-20T09:45:00.000Z</time>
      </trkpt>
      <trkpt lat="43.95855" lon="5.44331">
        <ele>721.8</ele>
        <time>2026-05-20T09:45:13.000Z</time>
      </trkpt>
      <trkpt lat="43.95845" lon="5.44336">
        <ele>721.8</ele>
        <time>2026-05-20T09:45:23.000Z</time>
      </trkpt>
      <trkpt lat="43.95836" lon="5.44342">
        <ele>721.9</ele>
        <time>2026-05-20T09:45:36.000Z</time>
      </trkpt>
      <trkpt lat="43.95828" lon="5.44346">
        <ele>721.8</ele>
        <time>2026-05-20T09:45:48.000Z</time>
      </trkpt>
      <trkpt lat="43.95819" lon="5.44351">
        <ele>722</ele>
        <time>2026-05-20T09:45:59.000Z</time>
      </trkpt>
      <trkpt lat="43.9581" lon="5.44354">
        <ele>721.8</ele>
        <time>2026-05-20T09:46:14.000Z</time>
      </trkpt>
      <trkpt lat="43.95801" lon="5.44358">
        <ele>722</ele>
        <time>2026-05-20T09:46:23.000Z</time>
      </trkpt>
      <trkpt lat="43.95792" lon="5.44362">
        <ele>722.1</ele>
        <time>2026-05-20T09:46:33.000Z</time>
      </trkpt>
      <trkpt lat="43.95783" lon="5.44366">
        <ele>722.5</ele>
        <time>2026-05-20T09:46:46.000Z</time>
      </trkpt>
      <trkpt lat="43.95774" lon="5.4437">
        <ele>722.7</ele>
        <time>2026-05-20T09:46:59.000Z</time>
      </trkpt>
      <trkpt lat="43.95765" lon="5.44375">
        <ele>722.9</ele>
        <time>2026-05-20T09:47:11.000Z</time>
      </trkpt>
      <trkpt lat="43.95758" lon="5.44383">
        <ele>723.4</ele>
        <time>2026-05-20T09:47:22.000Z</time>
      </trkpt>
      <trkpt lat="43.95752" lon="5.44393">
        <ele>723.6</ele>
        <time>2026-05-20T09:47:35.000Z</time>
      </trkpt>
      <trkpt lat="43.95745" lon="5.44403">
        <ele>723.3</ele>
        <time>2026-05-20T09:47:48.000Z</time>
      </trkpt>
      <trkpt lat="43.95741" lon="5.44416">
        <ele>723.7</ele>
        <time>2026-05-20T09:47:58.000Z</time>
      </trkpt>
      <trkpt lat="43.95742" lon="5.44429">
        <ele>725</ele>
        <time>2026-05-20T09:48:13.000Z</time>
      </trkpt>
      <trkpt lat="43.95744" lon="5.44441">
        <ele>726.6</ele>
        <time>2026-05-20T09:48:26.000Z</time>
      </trkpt>
      <trkpt lat="43.95747" lon="5.44453">
        <ele>728.2</ele>
        <time>2026-05-20T09:48:39.000Z</time>
      </trkpt>
      <trkpt lat="43.95749" lon="5.44467">
        <ele>729.4</ele>
        <time>2026-05-20T09:48:53.000Z</time>
      </trkpt>
      <trkpt lat="43.9575" lon="5.44481">
        <ele>730.5</ele>
        <time>2026-05-20T09:49:08.000Z</time>
      </trkpt>
      <trkpt lat="43.95751" lon="5.44493">
        <ele>731.7</ele>
        <time>2026-05-20T09:49:22.000Z</time>
      </trkpt>
      <trkpt lat="43.95752" lon="5.44506">
        <ele>732.8</ele>
        <time>2026-05-20T09:49:33.000Z</time>
      </trkpt>
      <trkpt lat="43.95754" lon="5.44519">
        <ele>734.1</ele>
        <time>2026-05-20T09:49:53.000Z</time>
      </trkpt>
      <trkpt lat="43.95755" lon="5.44531">
        <ele>735.3</ele>
        <time>2026-05-20T09:50:10.000Z</time>
      </trkpt>
      <trkpt lat="43.95754" lon="5.44543">
        <ele>736.3</ele>
        <time>2026-05-20T09:50:29.000Z</time>
      </trkpt>
      <trkpt lat="43.95756" lon="5.44556">
        <ele>737.9</ele>
        <time>2026-05-20T09:50:45.000Z</time>
      </trkpt>
      <trkpt lat="43.95758" lon="5.44568">
        <ele>739</ele>
        <time>2026-05-20T09:50:59.000Z</time>
      </trkpt>
      <trkpt lat="43.9576" lon="5.4458">
        <ele>740.1</ele>
        <time>2026-05-20T09:51:10.000Z</time>
      </trkpt>
      <trkpt lat="43.95762" lon="5.44594">
        <ele>741.4</ele>
        <time>2026-05-20T09:51:47.000Z</time>
      </trkpt>
      <trkpt lat="43.95763" lon="5.44607">
        <ele>742.6</ele>
        <time>2026-05-20T09:52:58.000Z</time>
      </trkpt>
      <trkpt lat="43.95766" lon="5.44618">
        <ele>743.6</ele>
        <time>2026-05-20T09:53:09.000Z</time>
      </trkpt>
      <trkpt lat="43.95766" lon="5.44632">
        <ele>744.3</ele>
        <time>2026-05-20T09:53:19.000Z</time>
      </trkpt>
      <trkpt lat="43.95765" lon="5.44645">
        <ele>744.7</ele>
        <time>2026-05-20T09:53:30.000Z</time>
      </trkpt>
      <trkpt lat="43.95765" lon="5.44657">
        <ele>745</ele>
        <time>2026-05-20T09:53:41.000Z</time>
      </trkpt>
      <trkpt lat="43.95764" lon="5.44669">
        <ele>745</ele>
        <time>2026-05-20T09:53:57.000Z</time>
      </trkpt>
      <trkpt lat="43.95764" lon="5.44681">
        <ele>745</ele>
        <time>2026-05-20T09:54:07.000Z</time>
      </trkpt>
      <trkpt lat="43.95763" lon="5.44694">
        <ele>744.9</ele>
        <time>2026-05-20T09:54:17.000Z</time>
      </trkpt>
      <trkpt lat="43.95762" lon="5.44708">
        <ele>744.9</ele>
        <time>2026-05-20T09:54:28.000Z</time>
      </trkpt>
      <trkpt lat="43.95762" lon="5.44721">
        <ele>745.1</ele>
        <time>2026-05-20T09:54:41.000Z</time>
      </trkpt>
      <trkpt lat="43.95763" lon="5.44735">
        <ele>744.8</ele>
        <time>2026-05-20T09:54:50.000Z</time>
      </trkpt>
      <trkpt lat="43.95764" lon="5.44749">
        <ele>744.6</ele>
        <time>2026-05-20T09:55:02.000Z</time>
      </trkpt>
      <trkpt lat="43.95767" lon="5.4476">
        <ele>744.4</ele>
        <time>2026-05-20T09:55:12.000Z</time>
      </trkpt>
      <trkpt lat="43.95773" lon="5.4477">
        <ele>744.7</ele>
        <time>2026-05-20T09:55:24.000Z</time>
      </trkpt>
      <trkpt lat="43.95779" lon="5.4478">
        <ele>745.3</ele>
        <time>2026-05-20T09:55:37.000Z</time>
      </trkpt>
      <trkpt lat="43.95786" lon="5.44788">
        <ele>746.9</ele>
        <time>2026-05-20T09:56:07.000Z</time>
      </trkpt>
      <trkpt lat="43.95792" lon="5.44797">
        <ele>748.3</ele>
        <time>2026-05-20T09:56:16.000Z</time>
      </trkpt>
      <trkpt lat="43.95797" lon="5.44807">
        <ele>749.6</ele>
        <time>2026-05-20T09:56:27.000Z</time>
      </trkpt>
      <trkpt lat="43.95804" lon="5.44818">
        <ele>751.2</ele>
        <time>2026-05-20T09:56:41.000Z</time>
      </trkpt>
      <trkpt lat="43.9581" lon="5.44828">
        <ele>752.5</ele>
        <time>2026-05-20T09:56:52.000Z</time>
      </trkpt>
      <trkpt lat="43.95814" lon="5.44838">
        <ele>753.7</ele>
        <time>2026-05-20T09:57:02.000Z</time>
      </trkpt>
      <trkpt lat="43.95814" lon="5.44851">
        <ele>754.2</ele>
        <time>2026-05-20T09:57:16.000Z</time>
      </trkpt>
      <trkpt lat="43.95814" lon="5.44864">
        <ele>754.4</ele>
        <time>2026-05-20T09:57:26.000Z</time>
      </trkpt>
      <trkpt lat="43.95815" lon="5.44877">
        <ele>754.4</ele>
        <time>2026-05-20T09:57:39.000Z</time>
      </trkpt>
      <trkpt lat="43.9582" lon="5.44889">
        <ele>755.1</ele>
        <time>2026-05-20T09:57:47.000Z</time>
      </trkpt>
      <trkpt lat="43.95825" lon="5.44902">
        <ele>755.8</ele>
        <time>2026-05-20T09:58:00.000Z</time>
      </trkpt>
      <trkpt lat="43.95833" lon="5.4491">
        <ele>757.1</ele>
        <time>2026-05-20T09:58:12.000Z</time>
      </trkpt>
      <trkpt lat="43.95839" lon="5.4492">
        <ele>757.9</ele>
        <time>2026-05-20T09:58:24.000Z</time>
      </trkpt>
      <trkpt lat="43.95843" lon="5.44932">
        <ele>757.9</ele>
        <time>2026-05-20T09:58:37.000Z</time>
      </trkpt>
      <trkpt lat="43.9585" lon="5.4494">
        <ele>758.8</ele>
        <time>2026-05-20T09:58:46.000Z</time>
      </trkpt>
      <trkpt lat="43.95858" lon="5.4495">
        <ele>759.9</ele>
        <time>2026-05-20T09:58:59.000Z</time>
      </trkpt>
      <trkpt lat="43.95866" lon="5.44959">
        <ele>761</ele>
        <time>2026-05-20T09:59:12.000Z</time>
      </trkpt>
      <trkpt lat="43.95873" lon="5.44968">
        <ele>761.8</ele>
        <time>2026-05-20T09:59:24.000Z</time>
      </trkpt>
      <trkpt lat="43.9588" lon="5.44975">
        <ele>763</ele>
        <time>2026-05-20T09:59:36.000Z</time>
      </trkpt>
      <trkpt lat="43.95889" lon="5.44982">
        <ele>764.2</ele>
        <time>2026-05-20T09:59:49.000Z</time>
      </trkpt>
      <trkpt lat="43.95896" lon="5.44991">
        <ele>765.3</ele>
        <time>2026-05-20T10:00:00.000Z</time>
      </trkpt>
      <trkpt lat="43.95904" lon="5.44998">
        <ele>766.4</ele>
        <time>2026-05-20T10:00:11.000Z</time>
      </trkpt>
      <trkpt lat="43.95912" lon="5.45002">
        <ele>767.7</ele>
        <time>2026-05-20T10:00:22.000Z</time>
      </trkpt>
      <trkpt lat="43.9592" lon="5.45008">
        <ele>768.4</ele>
        <time>2026-05-20T10:00:33.000Z</time>
      </trkpt>
      <trkpt lat="43.95928" lon="5.45015">
        <ele>769.2</ele>
        <time>2026-05-20T10:00:44.000Z</time>
      </trkpt>
      <trkpt lat="43.95934" lon="5.45024">
        <ele>769.1</ele>
        <time>2026-05-20T10:00:56.000Z</time>
      </trkpt>
      <trkpt lat="43.95942" lon="5.4503">
        <ele>770</ele>
        <time>2026-05-20T10:01:08.000Z</time>
      </trkpt>
      <trkpt lat="43.95951" lon="5.45034">
        <ele>771</ele>
        <time>2026-05-20T10:01:20.000Z</time>
      </trkpt>
      <trkpt lat="43.9596" lon="5.4504">
        <ele>771.7</ele>
        <time>2026-05-20T10:01:34.000Z</time>
      </trkpt>
      <trkpt lat="43.9597" lon="5.45045">
        <ele>772.8</ele>
        <time>2026-05-20T10:01:45.000Z</time>
      </trkpt>
      <trkpt lat="43.95979" lon="5.45051">
        <ele>773.4</ele>
        <time>2026-05-20T10:01:58.000Z</time>
      </trkpt>
      <trkpt lat="43.95987" lon="5.45058">
        <ele>773.7</ele>
        <time>2026-05-20T10:02:09.000Z</time>
      </trkpt>
      <trkpt lat="43.95996" lon="5.45065">
        <ele>774</ele>
        <time>2026-05-20T10:02:20.000Z</time>
      </trkpt>
      <trkpt lat="43.96004" lon="5.45072">
        <ele>773.6</ele>
        <time>2026-05-20T10:02:30.000Z</time>
      </trkpt>
      <trkpt lat="43.96012" lon="5.45079">
        <ele>772.6</ele>
        <time>2026-05-20T10:02:44.000Z</time>
      </trkpt>
      <trkpt lat="43.96022" lon="5.45083">
        <ele>771.8</ele>
        <time>2026-05-20T10:02:53.000Z</time>
      </trkpt>
      <trkpt lat="43.96031" lon="5.45087">
        <ele>771.7</ele>
        <time>2026-05-20T10:03:05.000Z</time>
      </trkpt>
      <trkpt lat="43.9604" lon="5.4509">
        <ele>772.5</ele>
        <time>2026-05-20T10:03:15.000Z</time>
      </trkpt>
      <trkpt lat="43.9605" lon="5.45093">
        <ele>773.2</ele>
        <time>2026-05-20T10:03:27.000Z</time>
      </trkpt>
      <trkpt lat="43.96059" lon="5.45097">
        <ele>773.9</ele>
        <time>2026-05-20T10:03:39.000Z</time>
      </trkpt>
      <trkpt lat="43.96069" lon="5.45101">
        <ele>774.8</ele>
        <time>2026-05-20T10:03:51.000Z</time>
      </trkpt>
      <trkpt lat="43.96078" lon="5.45104">
        <ele>776.3</ele>
        <time>2026-05-20T10:04:01.000Z</time>
      </trkpt>
      <trkpt lat="43.96088" lon="5.45104">
        <ele>778.4</ele>
        <time>2026-05-20T10:04:13.000Z</time>
      </trkpt>
      <trkpt lat="43.96098" lon="5.45106">
        <ele>780.2</ele>
        <time>2026-05-20T10:04:24.000Z</time>
      </trkpt>
      <trkpt lat="43.96108" lon="5.45108">
        <ele>781.9</ele>
        <time>2026-05-20T10:04:37.000Z</time>
      </trkpt>
      <trkpt lat="43.96116" lon="5.45112">
        <ele>782.6</ele>
        <time>2026-05-20T10:04:50.000Z</time>
      </trkpt>
      <trkpt lat="43.96125" lon="5.45112">
        <ele>784.3</ele>
        <time>2026-05-20T10:05:03.000Z</time>
      </trkpt>
      <trkpt lat="43.96133" lon="5.45109">
        <ele>786.3</ele>
        <time>2026-05-20T10:05:12.000Z</time>
      </trkpt>
      <trkpt lat="43.96129" lon="5.451">
        <ele>787.5</ele>
        <time>2026-05-20T10:05:44.000Z</time>
      </trkpt>
      <trkpt lat="43.96124" lon="5.4509">
        <ele>788.5</ele>
        <time>2026-05-20T10:05:57.000Z</time>
      </trkpt>
      <trkpt lat="43.96119" lon="5.45079">
        <ele>790.9</ele>
        <time>2026-05-20T10:06:14.000Z</time>
      </trkpt>
      <trkpt lat="43.96115" lon="5.45072">
        <ele>793</ele>
        <time>2026-05-20T10:07:21.000Z</time>
      </trkpt>
      <trkpt lat="43.96123" lon="5.45079">
        <ele>791.5</ele>
        <time>2026-05-20T11:03:22.000Z</time>
      </trkpt>
      <trkpt lat="43.96118" lon="5.45075">
        <ele>792.2</ele>
        <time>2026-05-20T11:03:58.000Z</time>
      </trkpt>
      <trkpt lat="43.96108" lon="5.45072">
        <ele>791.9</ele>
        <time>2026-05-20T11:08:26.000Z</time>
      </trkpt>
      <trkpt lat="43.96099" lon="5.45068">
        <ele>791.6</ele>
        <time>2026-05-20T11:08:51.000Z</time>
      </trkpt>
      <trkpt lat="43.9609" lon="5.45067">
        <ele>789.8</ele>
        <time>2026-05-20T11:09:06.000Z</time>
      </trkpt>
      <trkpt lat="43.96081" lon="5.45065">
        <ele>788.7</ele>
        <time>2026-05-20T11:09:43.000Z</time>
      </trkpt>
      <trkpt lat="43.96073" lon="5.45059">
        <ele>789.2</ele>
        <time>2026-05-20T11:09:51.000Z</time>
      </trkpt>
      <trkpt lat="43.96067" lon="5.45051">
        <ele>790</ele>
        <time>2026-05-20T11:10:03.000Z</time>
      </trkpt>
      <trkpt lat="43.96074" lon="5.45048">
        <ele>792.5</ele>
        <time>2026-05-20T11:10:33.000Z</time>
      </trkpt>
      <trkpt lat="43.96083" lon="5.45048">
        <ele>794.5</ele>
        <time>2026-05-20T11:10:44.000Z</time>
      </trkpt>
      <trkpt lat="43.96092" lon="5.45051">
        <ele>795.9</ele>
        <time>2026-05-20T11:10:55.000Z</time>
      </trkpt>
      <trkpt lat="43.96099" lon="5.45052">
        <ele>797.1</ele>
        <time>2026-05-20T11:11:14.000Z</time>
      </trkpt>
      <trkpt lat="43.96092" lon="5.4505">
        <ele>796</ele>
        <time>2026-05-20T11:17:29.000Z</time>
      </trkpt>
      <trkpt lat="43.96081" lon="5.45047">
        <ele>794.4</ele>
        <time>2026-05-20T11:17:41.000Z</time>
      </trkpt>
      <trkpt lat="43.96072" lon="5.45046">
        <ele>792.5</ele>
        <time>2026-05-20T11:17:56.000Z</time>
      </trkpt>
      <trkpt lat="43.96066" lon="5.45038">
        <ele>793.1</ele>
        <time>2026-05-20T11:18:08.000Z</time>
      </trkpt>
      <trkpt lat="43.96059" lon="5.45029">
        <ele>794.3</ele>
        <time>2026-05-20T11:18:17.000Z</time>
      </trkpt>
      <trkpt lat="43.96056" lon="5.45018">
        <ele>795.1</ele>
        <time>2026-05-20T11:18:31.000Z</time>
      </trkpt>
      <trkpt lat="43.96052" lon="5.45006">
        <ele>795.8</ele>
        <time>2026-05-20T11:18:44.000Z</time>
      </trkpt>
      <trkpt lat="43.96047" lon="5.44994">
        <ele>795.8</ele>
        <time>2026-05-20T11:18:53.000Z</time>
      </trkpt>
      <trkpt lat="43.96041" lon="5.44982">
        <ele>795</ele>
        <time>2026-05-20T11:19:05.000Z</time>
      </trkpt>
      <trkpt lat="43.96035" lon="5.44972">
        <ele>794</ele>
        <time>2026-05-20T11:19:17.000Z</time>
      </trkpt>
      <trkpt lat="43.96028" lon="5.44963">
        <ele>793.3</ele>
        <time>2026-05-20T11:19:28.000Z</time>
      </trkpt>
      <trkpt lat="43.96024" lon="5.44952">
        <ele>793.1</ele>
        <time>2026-05-20T11:19:38.000Z</time>
      </trkpt>
      <trkpt lat="43.9602" lon="5.44941">
        <ele>792.8</ele>
        <time>2026-05-20T11:19:49.000Z</time>
      </trkpt>
      <trkpt lat="43.9602" lon="5.44929">
        <ele>792.5</ele>
        <time>2026-05-20T11:19:59.000Z</time>
      </trkpt>
      <trkpt lat="43.96021" lon="5.44914">
        <ele>792.2</ele>
        <time>2026-05-20T11:20:11.000Z</time>
      </trkpt>
      <trkpt lat="43.96022" lon="5.44901">
        <ele>792.2</ele>
        <time>2026-05-20T11:20:21.000Z</time>
      </trkpt>
      <trkpt lat="43.96024" lon="5.44888">
        <ele>792.3</ele>
        <time>2026-05-20T11:20:32.000Z</time>
      </trkpt>
      <trkpt lat="43.96025" lon="5.44875">
        <ele>792.6</ele>
        <time>2026-05-20T11:20:41.000Z</time>
      </trkpt>
      <trkpt lat="43.96027" lon="5.44862">
        <ele>792.9</ele>
        <time>2026-05-20T11:20:54.000Z</time>
      </trkpt>
      <trkpt lat="43.9603" lon="5.4485">
        <ele>792.9</ele>
        <time>2026-05-20T11:21:05.000Z</time>
      </trkpt>
      <trkpt lat="43.96035" lon="5.44838">
        <ele>792.9</ele>
        <time>2026-05-20T11:21:17.000Z</time>
      </trkpt>
      <trkpt lat="43.96036" lon="5.44824">
        <ele>792.8</ele>
        <time>2026-05-20T11:21:29.000Z</time>
      </trkpt>
      <trkpt lat="43.96035" lon="5.44811">
        <ele>792.5</ele>
        <time>2026-05-20T11:21:39.000Z</time>
      </trkpt>
      <trkpt lat="43.96035" lon="5.44798">
        <ele>792.2</ele>
        <time>2026-05-20T11:21:51.000Z</time>
      </trkpt>
      <trkpt lat="43.96035" lon="5.44786">
        <ele>791.8</ele>
        <time>2026-05-20T11:22:01.000Z</time>
      </trkpt>
      <trkpt lat="43.96033" lon="5.44773">
        <ele>791.1</ele>
        <time>2026-05-20T11:22:11.000Z</time>
      </trkpt>
      <trkpt lat="43.96031" lon="5.4476">
        <ele>790.1</ele>
        <time>2026-05-20T11:22:24.000Z</time>
      </trkpt>
      <trkpt lat="43.96031" lon="5.44746">
        <ele>789.3</ele>
        <time>2026-05-20T11:22:35.000Z</time>
      </trkpt>
      <trkpt lat="43.96031" lon="5.44734">
        <ele>788.8</ele>
        <time>2026-05-20T11:22:45.000Z</time>
      </trkpt>
      <trkpt lat="43.96031" lon="5.44721">
        <ele>788.3</ele>
        <time>2026-05-20T11:22:57.000Z</time>
      </trkpt>
      <trkpt lat="43.96031" lon="5.44708">
        <ele>787.8</ele>
        <time>2026-05-20T11:23:05.000Z</time>
      </trkpt>
      <trkpt lat="43.96032" lon="5.44694">
        <ele>787.3</ele>
        <time>2026-05-20T11:23:15.000Z</time>
      </trkpt>
      <trkpt lat="43.96032" lon="5.44682">
        <ele>786.5</ele>
        <time>2026-05-20T11:23:24.000Z</time>
      </trkpt>
      <trkpt lat="43.96033" lon="5.44669">
        <ele>785.8</ele>
        <time>2026-05-20T11:23:35.000Z</time>
      </trkpt>
      <trkpt lat="43.96032" lon="5.44656">
        <ele>784.7</ele>
        <time>2026-05-20T11:23:45.000Z</time>
      </trkpt>
      <trkpt lat="43.96032" lon="5.44644">
        <ele>783.8</ele>
        <time>2026-05-20T11:23:54.000Z</time>
      </trkpt>
      <trkpt lat="43.96032" lon="5.44631">
        <ele>782.9</ele>
        <time>2026-05-20T11:24:05.000Z</time>
      </trkpt>
      <trkpt lat="43.96033" lon="5.44619">
        <ele>782.1</ele>
        <time>2026-05-20T11:24:15.000Z</time>
      </trkpt>
      <trkpt lat="43.96036" lon="5.44607">
        <ele>781.5</ele>
        <time>2026-05-20T11:24:25.000Z</time>
      </trkpt>
      <trkpt lat="43.9604" lon="5.44596">
        <ele>781</ele>
        <time>2026-05-20T11:24:35.000Z</time>
      </trkpt>
      <trkpt lat="43.96045" lon="5.44586">
        <ele>780.5</ele>
        <time>2026-05-20T11:24:45.000Z</time>
      </trkpt>
      <trkpt lat="43.96051" lon="5.44577">
        <ele>779.9</ele>
        <time>2026-05-20T11:24:56.000Z</time>
      </trkpt>
      <trkpt lat="43.96058" lon="5.44567">
        <ele>779.4</ele>
        <time>2026-05-20T11:25:06.000Z</time>
      </trkpt>
      <trkpt lat="43.96064" lon="5.44557">
        <ele>778.7</ele>
        <time>2026-05-20T11:25:19.000Z</time>
      </trkpt>
      <trkpt lat="43.9607" lon="5.44547">
        <ele>777.7</ele>
        <time>2026-05-20T11:25:31.000Z</time>
      </trkpt>
      <trkpt lat="43.96075" lon="5.44536">
        <ele>776.5</ele>
        <time>2026-05-20T11:25:46.000Z</time>
      </trkpt>
      <trkpt lat="43.96081" lon="5.44526">
        <ele>775.6</ele>
        <time>2026-05-20T11:26:15.000Z</time>
      </trkpt>
      <trkpt lat="43.96089" lon="5.4452">
        <ele>775.3</ele>
        <time>2026-05-20T11:28:57.000Z</time>
      </trkpt>
      <trkpt lat="43.96097" lon="5.44523">
        <ele>775.9</ele>
        <time>2026-05-20T11:29:07.000Z</time>
      </trkpt>
      <trkpt lat="43.96106" lon="5.44525">
        <ele>776.5</ele>
        <time>2026-05-20T11:29:32.000Z</time>
      </trkpt>
      <trkpt lat="43.96113" lon="5.44519">
        <ele>775.8</ele>
        <time>2026-05-20T11:29:52.000Z</time>
      </trkpt>
      <trkpt lat="43.96113" lon="5.44506">
        <ele>774</ele>
        <time>2026-05-20T11:30:05.000Z</time>
      </trkpt>
      <trkpt lat="43.96114" lon="5.44494">
        <ele>771.7</ele>
        <time>2026-05-20T11:30:38.000Z</time>
      </trkpt>
      <trkpt lat="43.96112" lon="5.44481">
        <ele>768.9</ele>
        <time>2026-05-20T11:30:54.000Z</time>
      </trkpt>
      <trkpt lat="43.96108" lon="5.44471">
        <ele>766.7</ele>
        <time>2026-05-20T11:31:23.000Z</time>
      </trkpt>
      <trkpt lat="43.96111" lon="5.44461">
        <ele>765</ele>
        <time>2026-05-20T11:31:42.000Z</time>
      </trkpt>
      <trkpt lat="43.9611" lon="5.44452">
        <ele>763.3</ele>
        <time>2026-05-20T11:31:56.000Z</time>
      </trkpt>
      <trkpt lat="43.9611" lon="5.44461">
        <ele>765</ele>
        <time>2026-05-20T11:34:22.000Z</time>
      </trkpt>
      <trkpt lat="43.9611" lon="5.44475">
        <ele>767.5</ele>
        <time>2026-05-20T11:34:43.000Z</time>
      </trkpt>
      <trkpt lat="43.96113" lon="5.44487">
        <ele>770.3</ele>
        <time>2026-05-20T11:34:58.000Z</time>
      </trkpt>
      <trkpt lat="43.96113" lon="5.445">
        <ele>773.1</ele>
        <time>2026-05-20T11:35:16.000Z</time>
      </trkpt>
      <trkpt lat="43.96112" lon="5.44514">
        <ele>775</ele>
        <time>2026-05-20T11:35:36.000Z</time>
      </trkpt>
      <trkpt lat="43.9611" lon="5.44525">
        <ele>776.6</ele>
        <time>2026-05-20T11:35:50.000Z</time>
      </trkpt>
      <trkpt lat="43.96102" lon="5.44526">
        <ele>776.4</ele>
        <time>2026-05-20T11:36:06.000Z</time>
      </trkpt>
      <trkpt lat="43.96095" lon="5.44521">
        <ele>775.5</ele>
        <time>2026-05-20T11:36:19.000Z</time>
      </trkpt>
      <trkpt lat="43.96087" lon="5.4452">
        <ele>775.3</ele>
        <time>2026-05-20T11:36:34.000Z</time>
      </trkpt>
      <trkpt lat="43.96079" lon="5.44526">
        <ele>775.4</ele>
        <time>2026-05-20T11:36:48.000Z</time>
      </trkpt>
      <trkpt lat="43.96071" lon="5.44522">
        <ele>774.4</ele>
        <time>2026-05-20T11:39:08.000Z</time>
      </trkpt>
      <trkpt lat="43.96064" lon="5.44513">
        <ele>773</ele>
        <time>2026-05-20T11:39:27.000Z</time>
      </trkpt>
      <trkpt lat="43.96058" lon="5.44503">
        <ele>771.5</ele>
        <time>2026-05-20T11:39:40.000Z</time>
      </trkpt>
      <trkpt lat="43.96051" lon="5.44494">
        <ele>769.5</ele>
        <time>2026-05-20T11:39:54.000Z</time>
      </trkpt>
      <trkpt lat="43.96043" lon="5.44486">
        <ele>767.3</ele>
        <time>2026-05-20T11:40:17.000Z</time>
      </trkpt>
      <trkpt lat="43.96036" lon="5.44478">
        <ele>765.5</ele>
        <time>2026-05-20T11:40:32.000Z</time>
      </trkpt>
      <trkpt lat="43.96028" lon="5.44471">
        <ele>763.8</ele>
        <time>2026-05-20T11:40:49.000Z</time>
      </trkpt>
      <trkpt lat="43.9602" lon="5.44464">
        <ele>761.9</ele>
        <time>2026-05-20T11:41:04.000Z</time>
      </trkpt>
      <trkpt lat="43.96012" lon="5.44457">
        <ele>759.8</ele>
        <time>2026-05-20T11:41:19.000Z</time>
      </trkpt>
      <trkpt lat="43.96005" lon="5.44448">
        <ele>757.4</ele>
        <time>2026-05-20T11:41:33.000Z</time>
      </trkpt>
      <trkpt lat="43.95997" lon="5.44442">
        <ele>755.2</ele>
        <time>2026-05-20T11:41:46.000Z</time>
      </trkpt>
      <trkpt lat="43.95989" lon="5.44434">
        <ele>753.2</ele>
        <time>2026-05-20T11:42:00.000Z</time>
      </trkpt>
      <trkpt lat="43.9598" lon="5.44429">
        <ele>751.3</ele>
        <time>2026-05-20T11:42:15.000Z</time>
      </trkpt>
      <trkpt lat="43.95972" lon="5.44424">
        <ele>749.6</ele>
        <time>2026-05-20T11:42:27.000Z</time>
      </trkpt>
      <trkpt lat="43.95964" lon="5.4442">
        <ele>748</ele>
        <time>2026-05-20T11:42:40.000Z</time>
      </trkpt>
      <trkpt lat="43.95956" lon="5.44415">
        <ele>746.4</ele>
        <time>2026-05-20T11:42:52.000Z</time>
      </trkpt>
      <trkpt lat="43.95951" lon="5.44406">
        <ele>743.7</ele>
        <time>2026-05-20T11:43:08.000Z</time>
      </trkpt>
      <trkpt lat="43.95943" lon="5.44398">
        <ele>741.3</ele>
        <time>2026-05-20T11:43:23.000Z</time>
      </trkpt>
      <trkpt lat="43.95935" lon="5.44392">
        <ele>739.5</ele>
        <time>2026-05-20T11:43:47.000Z</time>
      </trkpt>
      <trkpt lat="43.95926" lon="5.44386">
        <ele>737.7</ele>
        <time>2026-05-20T11:44:00.000Z</time>
      </trkpt>
      <trkpt lat="43.95919" lon="5.44379">
        <ele>735.9</ele>
        <time>2026-05-20T11:44:15.000Z</time>
      </trkpt>
      <trkpt lat="43.9591" lon="5.44374">
        <ele>734.3</ele>
        <time>2026-05-20T11:44:25.000Z</time>
      </trkpt>
      <trkpt lat="43.95901" lon="5.44367">
        <ele>732.2</ele>
        <time>2026-05-20T11:44:40.000Z</time>
      </trkpt>
      <trkpt lat="43.95892" lon="5.44364">
        <ele>730.8</ele>
        <time>2026-05-20T11:44:50.000Z</time>
      </trkpt>
      <trkpt lat="43.95883" lon="5.4436">
        <ele>729.4</ele>
        <time>2026-05-20T11:44:59.000Z</time>
      </trkpt>
      <trkpt lat="43.95874" lon="5.44357">
        <ele>728.2</ele>
        <time>2026-05-20T11:45:07.000Z</time>
      </trkpt>
      <trkpt lat="43.95863" lon="5.44357">
        <ele>727.4</ele>
        <time>2026-05-20T11:45:15.000Z</time>
      </trkpt>
      <trkpt lat="43.95842" lon="5.44361">
        <ele>725.9</ele>
        <time>2026-05-20T11:46:02.000Z</time>
      </trkpt>
      <trkpt lat="43.95831" lon="5.44355">
        <ele>723.7</ele>
        <time>2026-05-20T11:46:12.000Z</time>
      </trkpt>
      <trkpt lat="43.95826" lon="5.44348">
        <ele>722</ele>
        <time>2026-05-20T11:46:35.000Z</time>
      </trkpt>
      <trkpt lat="43.95832" lon="5.44344">
        <ele>721.7</ele>
        <time>2026-05-20T11:47:26.000Z</time>
      </trkpt>
      <trkpt lat="43.9584" lon="5.44338">
        <ele>721.5</ele>
        <time>2026-05-20T11:48:48.000Z</time>
      </trkpt>
      <trkpt lat="43.95849" lon="5.44335">
        <ele>721.9</ele>
        <time>2026-05-20T11:48:57.000Z</time>
      </trkpt>
      <trkpt lat="43.95857" lon="5.44331">
        <ele>722.2</ele>
        <time>2026-05-20T11:49:05.000Z</time>
      </trkpt>
      <trkpt lat="43.95866" lon="5.44327">
        <ele>722.2</ele>
        <time>2026-05-20T11:49:14.000Z</time>
      </trkpt>
      <trkpt lat="43.95874" lon="5.44323">
        <ele>721.9</ele>
        <time>2026-05-20T11:49:22.000Z</time>
      </trkpt>
      <trkpt lat="43.95884" lon="5.4432">
        <ele>721.7</ele>
        <time>2026-05-20T11:49:33.000Z</time>
      </trkpt>
      <trkpt lat="43.95892" lon="5.44317">
        <ele>721.7</ele>
        <time>2026-05-20T11:49:41.000Z</time>
      </trkpt>
      <trkpt lat="43.95901" lon="5.44316">
        <ele>721.8</ele>
        <time>2026-05-20T11:49:50.000Z</time>
      </trkpt>
      <trkpt lat="43.9591" lon="5.44314">
        <ele>721.5</ele>
        <time>2026-05-20T11:49:58.000Z</time>
      </trkpt>
      <trkpt lat="43.95918" lon="5.44308">
        <ele>720.6</ele>
        <time>2026-05-20T11:50:07.000Z</time>
      </trkpt>
      <trkpt lat="43.95926" lon="5.44304">
        <ele>720</ele>
        <time>2026-05-20T11:50:16.000Z</time>
      </trkpt>
      <trkpt lat="43.95935" lon="5.44299">
        <ele>719.4</ele>
        <time>2026-05-20T11:50:26.000Z</time>
      </trkpt>
      <trkpt lat="43.95944" lon="5.44293">
        <ele>718.6</ele>
        <time>2026-05-20T11:50:39.000Z</time>
      </trkpt>
      <trkpt lat="43.95954" lon="5.44285">
        <ele>717.6</ele>
        <time>2026-05-20T11:50:49.000Z</time>
      </trkpt>
      <trkpt lat="43.95962" lon="5.4428">
        <ele>717</ele>
        <time>2026-05-20T11:50:59.000Z</time>
      </trkpt>
      <trkpt lat="43.95971" lon="5.44274">
        <ele>716.3</ele>
        <time>2026-05-20T11:51:09.000Z</time>
      </trkpt>
      <trkpt lat="43.95981" lon="5.44268">
        <ele>715.7</ele>
        <time>2026-05-20T11:51:21.000Z</time>
      </trkpt>
      <trkpt lat="43.95989" lon="5.44262">
        <ele>715</ele>
        <time>2026-05-20T11:51:31.000Z</time>
      </trkpt>
      <trkpt lat="43.95998" lon="5.44255">
        <ele>714</ele>
        <time>2026-05-20T11:51:41.000Z</time>
      </trkpt>
      <trkpt lat="43.96006" lon="5.44248">
        <ele>713</ele>
        <time>2026-05-20T11:51:51.000Z</time>
      </trkpt>
      <trkpt lat="43.96013" lon="5.4424">
        <ele>712.2</ele>
        <time>2026-05-20T11:51:59.000Z</time>
      </trkpt>
      <trkpt lat="43.96022" lon="5.44234">
        <ele>711.7</ele>
        <time>2026-05-20T11:52:07.000Z</time>
      </trkpt>
      <trkpt lat="43.96029" lon="5.44226">
        <ele>710.9</ele>
        <time>2026-05-20T11:52:18.000Z</time>
      </trkpt>
      <trkpt lat="43.96036" lon="5.44219">
        <ele>711.1</ele>
        <time>2026-05-20T11:52:28.000Z</time>
      </trkpt>
      <trkpt lat="43.96043" lon="5.44212">
        <ele>711.6</ele>
        <time>2026-05-20T11:52:40.000Z</time>
      </trkpt>
      <trkpt lat="43.96052" lon="5.4421">
        <ele>712.3</ele>
        <time>2026-05-20T11:52:50.000Z</time>
      </trkpt>
      <trkpt lat="43.96061" lon="5.44206">
        <ele>712.7</ele>
        <time>2026-05-20T11:53:43.000Z</time>
      </trkpt>
      <trkpt lat="43.9607" lon="5.442">
        <ele>713.1</ele>
        <time>2026-05-20T11:55:09.000Z</time>
      </trkpt>
      <trkpt lat="43.9608" lon="5.44195">
        <ele>713.6</ele>
        <time>2026-05-20T11:55:22.000Z</time>
      </trkpt>
      <trkpt lat="43.9609" lon="5.44192">
        <ele>714.6</ele>
        <time>2026-05-20T11:55:32.000Z</time>
      </trkpt>
      <trkpt lat="43.96099" lon="5.44188">
        <ele>715.2</ele>
        <time>2026-05-20T11:55:41.000Z</time>
      </trkpt>
      <trkpt lat="43.96107" lon="5.44183">
        <ele>715.8</ele>
        <time>2026-05-20T11:55:51.000Z</time>
      </trkpt>
      <trkpt lat="43.96116" lon="5.4418">
        <ele>716.6</ele>
        <time>2026-05-20T11:56:01.000Z</time>
      </trkpt>
      <trkpt lat="43.96125" lon="5.44177">
        <ele>717.2</ele>
        <time>2026-05-20T11:56:11.000Z</time>
      </trkpt>
      <trkpt lat="43.96134" lon="5.44175">
        <ele>718</ele>
        <time>2026-05-20T11:56:22.000Z</time>
      </trkpt>
      <trkpt lat="43.96144" lon="5.44174">
        <ele>718.8</ele>
        <time>2026-05-20T11:56:34.000Z</time>
      </trkpt>
      <trkpt lat="43.96155" lon="5.44173">
        <ele>719.8</ele>
        <time>2026-05-20T11:56:44.000Z</time>
      </trkpt>
      <trkpt lat="43.96164" lon="5.44173">
        <ele>720.9</ele>
        <time>2026-05-20T11:56:57.000Z</time>
      </trkpt>
      <trkpt lat="43.96174" lon="5.44172">
        <ele>721.7</ele>
        <time>2026-05-20T11:57:08.000Z</time>
      </trkpt>
      <trkpt lat="43.96184" lon="5.44169">
        <ele>722.2</ele>
        <time>2026-05-20T11:57:18.000Z</time>
      </trkpt>
      <trkpt lat="43.96193" lon="5.44166">
        <ele>722.6</ele>
        <time>2026-05-20T11:57:28.000Z</time>
      </trkpt>
      <trkpt lat="43.96202" lon="5.44161">
        <ele>722.7</ele>
        <time>2026-05-20T11:57:41.000Z</time>
      </trkpt>
      <trkpt lat="43.96211" lon="5.44158">
        <ele>722.8</ele>
        <time>2026-05-20T11:57:50.000Z</time>
      </trkpt>
      <trkpt lat="43.9622" lon="5.44156">
        <ele>723.1</ele>
        <time>2026-05-20T11:58:00.000Z</time>
      </trkpt>
      <trkpt lat="43.9623" lon="5.44154">
        <ele>723.3</ele>
        <time>2026-05-20T11:58:12.000Z</time>
      </trkpt>
      <trkpt lat="43.96239" lon="5.44152">
        <ele>723.6</ele>
        <time>2026-05-20T11:58:22.000Z</time>
      </trkpt>
      <trkpt lat="43.96248" lon="5.44151">
        <ele>724</ele>
        <time>2026-05-20T11:58:32.000Z</time>
      </trkpt>
      <trkpt lat="43.96257" lon="5.4415">
        <ele>724.2</ele>
        <time>2026-05-20T11:58:41.000Z</time>
      </trkpt>
      <trkpt lat="43.96267" lon="5.44151">
        <ele>725</ele>
        <time>2026-05-20T11:58:53.000Z</time>
      </trkpt>
      <trkpt lat="43.96276" lon="5.44153">
        <ele>725.9</ele>
        <time>2026-05-20T11:59:04.000Z</time>
      </trkpt>
      <trkpt lat="43.96285" lon="5.44152">
        <ele>726.3</ele>
        <time>2026-05-20T11:59:14.000Z</time>
      </trkpt>
      <trkpt lat="43.96295" lon="5.44151">
        <ele>726.7</ele>
        <time>2026-05-20T11:59:25.000Z</time>
      </trkpt>
      <trkpt lat="43.96305" lon="5.4415">
        <ele>727.1</ele>
        <time>2026-05-20T11:59:34.000Z</time>
      </trkpt>
      <trkpt lat="43.96314" lon="5.4415">
        <ele>728.1</ele>
        <time>2026-05-20T11:59:45.000Z</time>
      </trkpt>
      <trkpt lat="43.96324" lon="5.44147">
        <ele>728.4</ele>
        <time>2026-05-20T11:59:55.000Z</time>
      </trkpt>
      <trkpt lat="43.96334" lon="5.44147">
        <ele>729.3</ele>
        <time>2026-05-20T12:00:07.000Z</time>
      </trkpt>
      <trkpt lat="43.96344" lon="5.44146">
        <ele>730.2</ele>
        <time>2026-05-20T12:00:19.000Z</time>
      </trkpt>
      <trkpt lat="43.96355" lon="5.44146">
        <ele>731.2</ele>
        <time>2026-05-20T12:00:29.000Z</time>
      </trkpt>
      <trkpt lat="43.96365" lon="5.44146">
        <ele>732.3</ele>
        <time>2026-05-20T12:00:40.000Z</time>
      </trkpt>
      <trkpt lat="43.96376" lon="5.44145">
        <ele>733.2</ele>
        <time>2026-05-20T12:00:50.000Z</time>
      </trkpt>
      <trkpt lat="43.96386" lon="5.44144">
        <ele>734.1</ele>
        <time>2026-05-20T12:01:02.000Z</time>
      </trkpt>
      <trkpt lat="43.96395" lon="5.44144">
        <ele>734.6</ele>
        <time>2026-05-20T12:01:13.000Z</time>
      </trkpt>
      <trkpt lat="43.96404" lon="5.44144">
        <ele>734.9</ele>
        <time>2026-05-20T12:01:23.000Z</time>
      </trkpt>
      <trkpt lat="43.96414" lon="5.44145">
        <ele>735.6</ele>
        <time>2026-05-20T12:01:33.000Z</time>
      </trkpt>
      <trkpt lat="43.96423" lon="5.44145">
        <ele>735</ele>
        <time>2026-05-20T12:01:41.000Z</time>
      </trkpt>
      <trkpt lat="43.96432" lon="5.44147">
        <ele>734.7</ele>
        <time>2026-05-20T12:01:51.000Z</time>
      </trkpt>
      <trkpt lat="43.9644" lon="5.44152">
        <ele>735.2</ele>
        <time>2026-05-20T12:02:00.000Z</time>
      </trkpt>
      <trkpt lat="43.96449" lon="5.44156">
        <ele>735.3</ele>
        <time>2026-05-20T12:02:08.000Z</time>
      </trkpt>
      <trkpt lat="43.96458" lon="5.4416">
        <ele>734.8</ele>
        <time>2026-05-20T12:02:17.000Z</time>
      </trkpt>
      <trkpt lat="43.96467" lon="5.44163">
        <ele>734.1</ele>
        <time>2026-05-20T12:02:27.000Z</time>
      </trkpt>
      <trkpt lat="43.96476" lon="5.44168">
        <ele>733.7</ele>
        <time>2026-05-20T12:02:38.000Z</time>
      </trkpt>
      <trkpt lat="43.96485" lon="5.44173">
        <ele>733.1</ele>
        <time>2026-05-20T12:02:48.000Z</time>
      </trkpt>
      <trkpt lat="43.96495" lon="5.4418">
        <ele>732.5</ele>
        <time>2026-05-20T12:02:59.000Z</time>
      </trkpt>
      <trkpt lat="43.96505" lon="5.44185">
        <ele>731.7</ele>
        <time>2026-05-20T12:03:09.000Z</time>
      </trkpt>
      <trkpt lat="43.96514" lon="5.44189">
        <ele>731.2</ele>
        <time>2026-05-20T12:03:19.000Z</time>
      </trkpt>
      <trkpt lat="43.96524" lon="5.44192">
        <ele>730.1</ele>
        <time>2026-05-20T12:03:28.000Z</time>
      </trkpt>
      <trkpt lat="43.96533" lon="5.44196">
        <ele>729.9</ele>
        <time>2026-05-20T12:03:37.000Z</time>
      </trkpt>
      <trkpt lat="43.96541" lon="5.44201">
        <ele>730</ele>
        <time>2026-05-20T12:03:45.000Z</time>
      </trkpt>
      <trkpt lat="43.9655" lon="5.44205">
        <ele>730</ele>
        <time>2026-05-20T12:03:53.000Z</time>
      </trkpt>
      <trkpt lat="43.96559" lon="5.4421">
        <ele>730.1</ele>
        <time>2026-05-20T12:04:04.000Z</time>
      </trkpt>
      <trkpt lat="43.96569" lon="5.44214">
        <ele>730.2</ele>
        <time>2026-05-20T12:04:14.000Z</time>
      </trkpt>
      <trkpt lat="43.96578" lon="5.44216">
        <ele>730</ele>
        <time>2026-05-20T12:04:22.000Z</time>
      </trkpt>
      <trkpt lat="43.96587" lon="5.44221">
        <ele>730.4</ele>
        <time>2026-05-20T12:04:32.000Z</time>
      </trkpt>
      <trkpt lat="43.96596" lon="5.44227">
        <ele>731.6</ele>
        <time>2026-05-20T12:04:42.000Z</time>
      </trkpt>
      <trkpt lat="43.96605" lon="5.44233">
        <ele>732.6</ele>
        <time>2026-05-20T12:04:51.000Z</time>
      </trkpt>
      <trkpt lat="43.96614" lon="5.44236">
        <ele>733.1</ele>
        <time>2026-05-20T12:05:02.000Z</time>
      </trkpt>
      <trkpt lat="43.96624" lon="5.4424">
        <ele>733.9</ele>
        <time>2026-05-20T12:05:12.000Z</time>
      </trkpt>
      <trkpt lat="43.96633" lon="5.44243">
        <ele>734.6</ele>
        <time>2026-05-20T12:05:20.000Z</time>
      </trkpt>
      <trkpt lat="43.96643" lon="5.44245">
        <ele>735</ele>
        <time>2026-05-20T12:05:32.000Z</time>
      </trkpt>
      <trkpt lat="43.96652" lon="5.44238">
        <ele>733.6</ele>
        <time>2026-05-20T12:06:53.000Z</time>
      </trkpt>
      <trkpt lat="43.96655" lon="5.44225">
        <ele>730.5</ele>
        <time>2026-05-20T12:07:06.000Z</time>
      </trkpt>
      <trkpt lat="43.96657" lon="5.44212">
        <ele>728.4</ele>
        <time>2026-05-20T12:07:21.000Z</time>
      </trkpt>
      <trkpt lat="43.96655" lon="5.44199">
        <ele>726.4</ele>
        <time>2026-05-20T12:07:33.000Z</time>
      </trkpt>
      <trkpt lat="43.96654" lon="5.44186">
        <ele>723.1</ele>
        <time>2026-05-20T12:07:45.000Z</time>
      </trkpt>
      <trkpt lat="43.96649" lon="5.44175">
        <ele>720.1</ele>
        <time>2026-05-20T12:07:56.000Z</time>
      </trkpt>
      <trkpt lat="43.96646" lon="5.44163">
        <ele>717.4</ele>
        <time>2026-05-20T12:08:11.000Z</time>
      </trkpt>
      <trkpt lat="43.96641" lon="5.44153">
        <ele>715.1</ele>
        <time>2026-05-20T12:08:24.000Z</time>
      </trkpt>
      <trkpt lat="43.96634" lon="5.44143">
        <ele>713.2</ele>
        <time>2026-05-20T12:08:37.000Z</time>
      </trkpt>
      <trkpt lat="43.96627" lon="5.44132">
        <ele>710.7</ele>
        <time>2026-05-20T12:08:51.000Z</time>
      </trkpt>
      <trkpt lat="43.96621" lon="5.44123">
        <ele>708.9</ele>
        <time>2026-05-20T12:09:02.000Z</time>
      </trkpt>
      <trkpt lat="43.96616" lon="5.44113">
        <ele>707.9</ele>
        <time>2026-05-20T12:09:12.000Z</time>
      </trkpt>
      <trkpt lat="43.9661" lon="5.44103">
        <ele>706.8</ele>
        <time>2026-05-20T12:09:24.000Z</time>
      </trkpt>
      <trkpt lat="43.96602" lon="5.44094">
        <ele>704.8</ele>
        <time>2026-05-20T12:09:37.000Z</time>
      </trkpt>
      <trkpt lat="43.96593" lon="5.44088">
        <ele>703.7</ele>
        <time>2026-05-20T12:09:47.000Z</time>
      </trkpt>
      <trkpt lat="43.96587" lon="5.44079">
        <ele>702.2</ele>
        <time>2026-05-20T12:09:58.000Z</time>
      </trkpt>
      <trkpt lat="43.96582" lon="5.44068">
        <ele>700.8</ele>
        <time>2026-05-20T12:10:11.000Z</time>
      </trkpt>
      <trkpt lat="43.96576" lon="5.44058">
        <ele>698.8</ele>
        <time>2026-05-20T12:10:22.000Z</time>
      </trkpt>
      <trkpt lat="43.96567" lon="5.4405">
        <ele>696.4</ele>
        <time>2026-05-20T12:10:33.000Z</time>
      </trkpt>
      <trkpt lat="43.96558" lon="5.44042">
        <ele>694.6</ele>
        <time>2026-05-20T12:10:43.000Z</time>
      </trkpt>
      <trkpt lat="43.9655" lon="5.44037">
        <ele>693.6</ele>
        <time>2026-05-20T12:10:56.000Z</time>
      </trkpt>
      <trkpt lat="43.96547" lon="5.44027">
        <ele>691.6</ele>
        <time>2026-05-20T12:11:06.000Z</time>
      </trkpt>
      <trkpt lat="43.96539" lon="5.44021">
        <ele>690</ele>
        <time>2026-05-20T12:11:25.000Z</time>
      </trkpt>
      <trkpt lat="43.96534" lon="5.44012">
        <ele>687.6</ele>
        <time>2026-05-20T12:11:39.000Z</time>
      </trkpt>
      <trkpt lat="43.96535" lon="5.44001">
        <ele>685.2</ele>
        <time>2026-05-20T12:11:52.000Z</time>
      </trkpt>
      <trkpt lat="43.96528" lon="5.43994">
        <ele>682.2</ele>
        <time>2026-05-20T12:12:04.000Z</time>
      </trkpt>
      <trkpt lat="43.9652" lon="5.43987">
        <ele>680.1</ele>
        <time>2026-05-20T12:12:20.000Z</time>
      </trkpt>
      <trkpt lat="43.96511" lon="5.4398">
        <ele>677.6</ele>
        <time>2026-05-20T12:12:35.000Z</time>
      </trkpt>
      <trkpt lat="43.96503" lon="5.43976">
        <ele>675.7</ele>
        <time>2026-05-20T12:12:47.000Z</time>
      </trkpt>
      <trkpt lat="43.96494" lon="5.43971">
        <ele>674.6</ele>
        <time>2026-05-20T12:12:59.000Z</time>
      </trkpt>
      <trkpt lat="43.96486" lon="5.43965">
        <ele>674.4</ele>
        <time>2026-05-20T12:13:13.000Z</time>
      </trkpt>
      <trkpt lat="43.96479" lon="5.43958">
        <ele>672.4</ele>
        <time>2026-05-20T12:13:27.000Z</time>
      </trkpt>
      <trkpt lat="43.9647" lon="5.43954">
        <ele>670</ele>
        <time>2026-05-20T12:13:42.000Z</time>
      </trkpt>
      <trkpt lat="43.96462" lon="5.43949">
        <ele>669.4</ele>
        <time>2026-05-20T12:13:53.000Z</time>
      </trkpt>
      <trkpt lat="43.96457" lon="5.43939">
        <ele>668.4</ele>
        <time>2026-05-20T12:14:09.000Z</time>
      </trkpt>
      <trkpt lat="43.96452" lon="5.43929">
        <ele>667.3</ele>
        <time>2026-05-20T12:14:40.000Z</time>
      </trkpt>
      <trkpt lat="43.96448" lon="5.43916">
        <ele>664.2</ele>
        <time>2026-05-20T12:14:54.000Z</time>
      </trkpt>
      <trkpt lat="43.96444" lon="5.43904">
        <ele>663.3</ele>
        <time>2026-05-20T12:15:29.000Z</time>
      </trkpt>
      <trkpt lat="43.96439" lon="5.43895">
        <ele>662.3</ele>
        <time>2026-05-20T12:15:48.000Z</time>
      </trkpt>
      <trkpt lat="43.9643" lon="5.43894">
        <ele>660</ele>
        <time>2026-05-20T12:16:03.000Z</time>
      </trkpt>
      <trkpt lat="43.96421" lon="5.43897">
        <ele>657.7</ele>
        <time>2026-05-20T12:16:23.000Z</time>
      </trkpt>
      <trkpt lat="43.96411" lon="5.43904">
        <ele>658</ele>
        <time>2026-05-20T12:19:44.000Z</time>
      </trkpt>
      <trkpt lat="43.96403" lon="5.43914">
        <ele>657.5</ele>
        <time>2026-05-20T12:19:53.000Z</time>
      </trkpt>
      <trkpt lat="43.96399" lon="5.43925">
        <ele>657.6</ele>
        <time>2026-05-20T12:20:06.000Z</time>
      </trkpt>
      <trkpt lat="43.96391" lon="5.4393">
        <ele>655.9</ele>
        <time>2026-05-20T12:20:27.000Z</time>
      </trkpt>
      <trkpt lat="43.96381" lon="5.43936">
        <ele>655.1</ele>
        <time>2026-05-20T12:20:42.000Z</time>
      </trkpt>
      <trkpt lat="43.96373" lon="5.43942">
        <ele>653.2</ele>
        <time>2026-05-20T12:20:50.000Z</time>
      </trkpt>
      <trkpt lat="43.96366" lon="5.4395">
        <ele>652.2</ele>
        <time>2026-05-20T12:21:06.000Z</time>
      </trkpt>
      <trkpt lat="43.96358" lon="5.43955">
        <ele>651.6</ele>
        <time>2026-05-20T12:21:23.000Z</time>
      </trkpt>
      <trkpt lat="43.96349" lon="5.43956">
        <ele>651.2</ele>
        <time>2026-05-20T12:21:35.000Z</time>
      </trkpt>
      <trkpt lat="43.9634" lon="5.4396">
        <ele>650.3</ele>
        <time>2026-05-20T12:21:46.000Z</time>
      </trkpt>
      <trkpt lat="43.96331" lon="5.43962">
        <ele>649.3</ele>
        <time>2026-05-20T12:22:04.000Z</time>
      </trkpt>
      <trkpt lat="43.96322" lon="5.43965">
        <ele>648.6</ele>
        <time>2026-05-20T12:22:16.000Z</time>
      </trkpt>
      <trkpt lat="43.96314" lon="5.43962">
        <ele>648.1</ele>
        <time>2026-05-20T12:22:26.000Z</time>
      </trkpt>
      <trkpt lat="43.96306" lon="5.43955">
        <ele>646.6</ele>
        <time>2026-05-20T12:22:44.000Z</time>
      </trkpt>
      <trkpt lat="43.96299" lon="5.43947">
        <ele>645.2</ele>
        <time>2026-05-20T12:22:56.000Z</time>
      </trkpt>
      <trkpt lat="43.96291" lon="5.4394">
        <ele>645.2</ele>
        <time>2026-05-20T12:23:10.000Z</time>
      </trkpt>
      <trkpt lat="43.96283" lon="5.43935">
        <ele>644.8</ele>
        <time>2026-05-20T12:23:21.000Z</time>
      </trkpt>
      <trkpt lat="43.96274" lon="5.43932">
        <ele>643.7</ele>
        <time>2026-05-20T12:23:33.000Z</time>
      </trkpt>
      <trkpt lat="43.96266" lon="5.43928">
        <ele>642.7</ele>
        <time>2026-05-20T12:23:45.000Z</time>
      </trkpt>
      <trkpt lat="43.96256" lon="5.43924">
        <ele>641.1</ele>
        <time>2026-05-20T12:23:58.000Z</time>
      </trkpt>
      <trkpt lat="43.96246" lon="5.43921">
        <ele>639.4</ele>
        <time>2026-05-20T12:24:14.000Z</time>
      </trkpt>
      <trkpt lat="43.96238" lon="5.43919">
        <ele>638.3</ele>
        <time>2026-05-20T12:24:24.000Z</time>
      </trkpt>
      <trkpt lat="43.96228" lon="5.43919">
        <ele>637.5</ele>
        <time>2026-05-20T12:24:35.000Z</time>
      </trkpt>
      <trkpt lat="43.96218" lon="5.4392">
        <ele>636.8</ele>
        <time>2026-05-20T12:24:47.000Z</time>
      </trkpt>
      <trkpt lat="43.96208" lon="5.43922">
        <ele>636</ele>
        <time>2026-05-20T12:25:00.000Z</time>
      </trkpt>
      <trkpt lat="43.96199" lon="5.43923">
        <ele>635.3</ele>
        <time>2026-05-20T12:25:12.000Z</time>
      </trkpt>
      <trkpt lat="43.96191" lon="5.43928">
        <ele>635.5</ele>
        <time>2026-05-20T12:25:24.000Z</time>
      </trkpt>
      <trkpt lat="43.96183" lon="5.43928">
        <ele>634.7</ele>
        <time>2026-05-20T12:25:34.000Z</time>
      </trkpt>
      <trkpt lat="43.96174" lon="5.43927">
        <ele>633.6</ele>
        <time>2026-05-20T12:25:45.000Z</time>
      </trkpt>
      <trkpt lat="43.96165" lon="5.43923">
        <ele>631.9</ele>
        <time>2026-05-20T12:25:57.000Z</time>
      </trkpt>
      <trkpt lat="43.96158" lon="5.43915">
        <ele>630.4</ele>
        <time>2026-05-20T12:26:09.000Z</time>
      </trkpt>
      <trkpt lat="43.96149" lon="5.4391">
        <ele>630.6</ele>
        <time>2026-05-20T12:26:22.000Z</time>
      </trkpt>
      <trkpt lat="43.9614" lon="5.43903">
        <ele>630.3</ele>
        <time>2026-05-20T12:26:35.000Z</time>
      </trkpt>
      <trkpt lat="43.96132" lon="5.43894">
        <ele>630.2</ele>
        <time>2026-05-20T12:26:51.000Z</time>
      </trkpt>
      <trkpt lat="43.96125" lon="5.43886">
        <ele>630.1</ele>
        <time>2026-05-20T12:27:01.000Z</time>
      </trkpt>
      <trkpt lat="43.96117" lon="5.43877">
        <ele>630.3</ele>
        <time>2026-05-20T12:27:12.000Z</time>
      </trkpt>
      <trkpt lat="43.9611" lon="5.43871">
        <ele>629.6</ele>
        <time>2026-05-20T12:27:24.000Z</time>
      </trkpt>
      <trkpt lat="43.961" lon="5.43869">
        <ele>628.7</ele>
        <time>2026-05-20T12:27:34.000Z</time>
      </trkpt>
      <trkpt lat="43.96091" lon="5.43867">
        <ele>627.8</ele>
        <time>2026-05-20T12:27:46.000Z</time>
      </trkpt>
      <trkpt lat="43.96082" lon="5.43865">
        <ele>626.9</ele>
        <time>2026-05-20T12:27:56.000Z</time>
      </trkpt>
      <trkpt lat="43.96072" lon="5.43864">
        <ele>626.1</ele>
        <time>2026-05-20T12:28:07.000Z</time>
      </trkpt>
      <trkpt lat="43.96062" lon="5.43865">
        <ele>624.5</ele>
        <time>2026-05-20T12:28:19.000Z</time>
      </trkpt>
      <trkpt lat="43.96053" lon="5.43866">
        <ele>623.1</ele>
        <time>2026-05-20T12:28:34.000Z</time>
      </trkpt>
      <trkpt lat="43.96043" lon="5.43865">
        <ele>622.1</ele>
        <time>2026-05-20T12:28:44.000Z</time>
      </trkpt>
      <trkpt lat="43.96034" lon="5.43864">
        <ele>620.8</ele>
        <time>2026-05-20T12:28:56.000Z</time>
      </trkpt>
      <trkpt lat="43.96024" lon="5.43864">
        <ele>619.6</ele>
        <time>2026-05-20T12:29:06.000Z</time>
      </trkpt>
      <trkpt lat="43.96015" lon="5.43863">
        <ele>618.6</ele>
        <time>2026-05-20T12:29:20.000Z</time>
      </trkpt>
      <trkpt lat="43.96005" lon="5.43864">
        <ele>616.7</ele>
        <time>2026-05-20T12:29:32.000Z</time>
      </trkpt>
      <trkpt lat="43.95996" lon="5.43865">
        <ele>615.1</ele>
        <time>2026-05-20T12:29:42.000Z</time>
      </trkpt>
      <trkpt lat="43.95987" lon="5.43867">
        <ele>613.6</ele>
        <time>2026-05-20T12:29:57.000Z</time>
      </trkpt>
      <trkpt lat="43.95977" lon="5.43869">
        <ele>611.9</ele>
        <time>2026-05-20T12:30:08.000Z</time>
      </trkpt>
      <trkpt lat="43.95967" lon="5.43872">
        <ele>609.9</ele>
        <time>2026-05-20T12:30:21.000Z</time>
      </trkpt>
      <trkpt lat="43.95959" lon="5.43873">
        <ele>608.5</ele>
        <time>2026-05-20T12:30:32.000Z</time>
      </trkpt>
      <trkpt lat="43.9595" lon="5.43873">
        <ele>607.4</ele>
        <time>2026-05-20T12:30:46.000Z</time>
      </trkpt>
      <trkpt lat="43.9594" lon="5.43873">
        <ele>605.8</ele>
        <time>2026-05-20T12:30:58.000Z</time>
      </trkpt>
      <trkpt lat="43.9593" lon="5.43875">
        <ele>603.7</ele>
        <time>2026-05-20T12:31:10.000Z</time>
      </trkpt>
      <trkpt lat="43.9592" lon="5.43874">
        <ele>602.1</ele>
        <time>2026-05-20T12:31:27.000Z</time>
      </trkpt>
      <trkpt lat="43.9591" lon="5.43873">
        <ele>601.1</ele>
        <time>2026-05-20T12:31:39.000Z</time>
      </trkpt>
      <trkpt lat="43.95901" lon="5.43869">
        <ele>600.1</ele>
        <time>2026-05-20T12:31:50.000Z</time>
      </trkpt>
      <trkpt lat="43.95892" lon="5.43865">
        <ele>598.3</ele>
        <time>2026-05-20T12:32:03.000Z</time>
      </trkpt>
      <trkpt lat="43.95882" lon="5.43861">
        <ele>596.6</ele>
        <time>2026-05-20T12:32:19.000Z</time>
      </trkpt>
      <trkpt lat="43.95875" lon="5.43855">
        <ele>596.9</ele>
        <time>2026-05-20T12:32:34.000Z</time>
      </trkpt>
      <trkpt lat="43.95866" lon="5.43849">
        <ele>596.4</ele>
        <time>2026-05-20T12:32:44.000Z</time>
      </trkpt>
      <trkpt lat="43.95857" lon="5.43845">
        <ele>594.8</ele>
        <time>2026-05-20T12:32:59.000Z</time>
      </trkpt>
      <trkpt lat="43.95847" lon="5.43843">
        <ele>593</ele>
        <time>2026-05-20T12:33:12.000Z</time>
      </trkpt>
      <trkpt lat="43.95838" lon="5.43845">
        <ele>591.2</ele>
        <time>2026-05-20T12:33:25.000Z</time>
      </trkpt>
      <trkpt lat="43.95829" lon="5.43848">
        <ele>590.1</ele>
        <time>2026-05-20T12:33:37.000Z</time>
      </trkpt>
      <trkpt lat="43.9582" lon="5.43847">
        <ele>589.1</ele>
        <time>2026-05-20T12:33:54.000Z</time>
      </trkpt>
      <trkpt lat="43.95811" lon="5.43847">
        <ele>588.1</ele>
        <time>2026-05-20T12:34:06.000Z</time>
      </trkpt>
      <trkpt lat="43.95803" lon="5.43846">
        <ele>587.1</ele>
        <time>2026-05-20T12:34:23.000Z</time>
      </trkpt>
      <trkpt lat="43.95793" lon="5.43846">
        <ele>585.6</ele>
        <time>2026-05-20T12:34:36.000Z</time>
      </trkpt>
      <trkpt lat="43.95784" lon="5.43846">
        <ele>584.1</ele>
        <time>2026-05-20T12:34:49.000Z</time>
      </trkpt>
      <trkpt lat="43.95775" lon="5.4385">
        <ele>582.2</ele>
        <time>2026-05-20T12:35:02.000Z</time>
      </trkpt>
      <trkpt lat="43.95765" lon="5.43854">
        <ele>579.9</ele>
        <time>2026-05-20T12:35:17.000Z</time>
      </trkpt>
      <trkpt lat="43.95756" lon="5.43858">
        <ele>577.1</ele>
        <time>2026-05-20T12:35:33.000Z</time>
      </trkpt>
      <trkpt lat="43.95747" lon="5.43861">
        <ele>574.6</ele>
        <time>2026-05-20T12:35:49.000Z</time>
      </trkpt>
      <trkpt lat="43.95737" lon="5.4386">
        <ele>572.9</ele>
        <time>2026-05-20T12:36:04.000Z</time>
      </trkpt>
      <trkpt lat="43.95729" lon="5.43863">
        <ele>571.4</ele>
        <time>2026-05-20T12:36:14.000Z</time>
      </trkpt>
      <trkpt lat="43.95721" lon="5.43863">
        <ele>569.6</ele>
        <time>2026-05-20T12:36:25.000Z</time>
      </trkpt>
      <trkpt lat="43.95712" lon="5.43863">
        <ele>568.4</ele>
        <time>2026-05-20T12:36:41.000Z</time>
      </trkpt>
      <trkpt lat="43.95703" lon="5.43865">
        <ele>567.6</ele>
        <time>2026-05-20T12:37:00.000Z</time>
      </trkpt>
      <trkpt lat="43.95695" lon="5.43865">
        <ele>566.5</ele>
        <time>2026-05-20T12:37:16.000Z</time>
      </trkpt>
      <trkpt lat="43.95687" lon="5.43869">
        <ele>566.7</ele>
        <time>2026-05-20T12:37:31.000Z</time>
      </trkpt>
      <trkpt lat="43.95678" lon="5.43868">
        <ele>564.9</ele>
        <time>2026-05-20T12:37:43.000Z</time>
      </trkpt>
      <trkpt lat="43.95669" lon="5.43869">
        <ele>563.9</ele>
        <time>2026-05-20T12:38:02.000Z</time>
      </trkpt>
      <trkpt lat="43.9566" lon="5.43867">
        <ele>561.2</ele>
        <time>2026-05-20T12:38:19.000Z</time>
      </trkpt>
      <trkpt lat="43.9565" lon="5.43863">
        <ele>557</ele>
        <time>2026-05-20T12:38:33.000Z</time>
      </trkpt>
      <trkpt lat="43.95642" lon="5.43859">
        <ele>554.6</ele>
        <time>2026-05-20T12:38:47.000Z</time>
      </trkpt>
      <trkpt lat="43.95633" lon="5.43857">
        <ele>554.3</ele>
        <time>2026-05-20T12:38:59.000Z</time>
      </trkpt>
      <trkpt lat="43.95623" lon="5.43856">
        <ele>553.7</ele>
        <time>2026-05-20T12:39:09.000Z</time>
      </trkpt>
      <trkpt lat="43.95614" lon="5.43856">
        <ele>552.9</ele>
        <time>2026-05-20T12:39:20.000Z</time>
      </trkpt>
      <trkpt lat="43.95604" lon="5.43859">
        <ele>550</ele>
        <time>2026-05-20T12:39:35.000Z</time>
      </trkpt>
      <trkpt lat="43.95595" lon="5.43858">
        <ele>547.9</ele>
        <time>2026-05-20T12:39:45.000Z</time>
      </trkpt>
      <trkpt lat="43.95585" lon="5.43858">
        <ele>545.2</ele>
        <time>2026-05-20T12:39:58.000Z</time>
      </trkpt>
      <trkpt lat="43.95576" lon="5.43857">
        <ele>544.4</ele>
        <time>2026-05-20T12:40:08.000Z</time>
      </trkpt>
      <trkpt lat="43.95567" lon="5.43855">
        <ele>543.7</ele>
        <time>2026-05-20T12:40:18.000Z</time>
      </trkpt>
      <trkpt lat="43.95558" lon="5.43852">
        <ele>542.7</ele>
        <time>2026-05-20T12:40:29.000Z</time>
      </trkpt>
      <trkpt lat="43.95548" lon="5.43852">
        <ele>541.5</ele>
        <time>2026-05-20T12:40:41.000Z</time>
      </trkpt>
      <trkpt lat="43.95539" lon="5.4385">
        <ele>540.3</ele>
        <time>2026-05-20T12:40:51.000Z</time>
      </trkpt>
      <trkpt lat="43.9553" lon="5.43847">
        <ele>538.3</ele>
        <time>2026-05-20T12:41:03.000Z</time>
      </trkpt>
      <trkpt lat="43.95522" lon="5.43841">
        <ele>536</ele>
        <time>2026-05-20T12:41:13.000Z</time>
      </trkpt>
      <trkpt lat="43.95514" lon="5.43834">
        <ele>533.2</ele>
        <time>2026-05-20T12:41:25.000Z</time>
      </trkpt>
      <trkpt lat="43.95506" lon="5.43828">
        <ele>533.2</ele>
        <time>2026-05-20T12:41:37.000Z</time>
      </trkpt>
      <trkpt lat="43.95497" lon="5.43825">
        <ele>532.6</ele>
        <time>2026-05-20T12:46:38.000Z</time>
      </trkpt>
      <trkpt lat="43.95489" lon="5.43818">
        <ele>532.4</ele>
        <time>2026-05-20T12:46:53.000Z</time>
      </trkpt>
      <trkpt lat="43.9548" lon="5.43816">
        <ele>531.7</ele>
        <time>2026-05-20T12:47:04.000Z</time>
      </trkpt>
      <trkpt lat="43.95472" lon="5.43818">
        <ele>531.3</ele>
        <time>2026-05-20T12:47:12.000Z</time>
      </trkpt>
      <trkpt lat="43.95462" lon="5.43818">
        <ele>529.7</ele>
        <time>2026-05-20T12:47:22.000Z</time>
      </trkpt>
      <trkpt lat="43.95454" lon="5.43823">
        <ele>527.9</ele>
        <time>2026-05-20T12:47:33.000Z</time>
      </trkpt>
      <trkpt lat="43.95446" lon="5.43825">
        <ele>525.8</ele>
        <time>2026-05-20T12:47:48.000Z</time>
      </trkpt>
      <trkpt lat="43.95436" lon="5.43822">
        <ele>525.7</ele>
        <time>2026-05-20T12:48:04.000Z</time>
      </trkpt>
      <trkpt lat="43.95427" lon="5.4382">
        <ele>525.2</ele>
        <time>2026-05-20T12:48:16.000Z</time>
      </trkpt>
      <trkpt lat="43.95418" lon="5.43817">
        <ele>524.3</ele>
        <time>2026-05-20T12:48:32.000Z</time>
      </trkpt>
      <trkpt lat="43.95407" lon="5.43816">
        <ele>522.4</ele>
        <time>2026-05-20T12:48:53.000Z</time>
      </trkpt>
      <trkpt lat="43.95398" lon="5.43812">
        <ele>520.3</ele>
        <time>2026-05-20T12:49:06.000Z</time>
      </trkpt>
      <trkpt lat="43.95389" lon="5.43808">
        <ele>518.3</ele>
        <time>2026-05-20T12:49:20.000Z</time>
      </trkpt>
      <trkpt lat="43.95381" lon="5.4381">
        <ele>518.3</ele>
        <time>2026-05-20T12:49:30.000Z</time>
      </trkpt>
      <trkpt lat="43.95371" lon="5.43814">
        <ele>517.9</ele>
        <time>2026-05-20T12:49:42.000Z</time>
      </trkpt>
      <trkpt lat="43.95362" lon="5.43816">
        <ele>517.3</ele>
        <time>2026-05-20T12:49:52.000Z</time>
      </trkpt>
      <trkpt lat="43.95353" lon="5.4382">
        <ele>515.9</ele>
        <time>2026-05-20T12:50:02.000Z</time>
      </trkpt>
      <trkpt lat="43.95344" lon="5.43823">
        <ele>513.9</ele>
        <time>2026-05-20T12:50:17.000Z</time>
      </trkpt>
      <trkpt lat="43.95335" lon="5.43825">
        <ele>511.7</ele>
        <time>2026-05-20T12:50:27.000Z</time>
      </trkpt>
      <trkpt lat="43.95326" lon="5.43823">
        <ele>512.3</ele>
        <time>2026-05-20T12:50:40.000Z</time>
      </trkpt>
      <trkpt lat="43.95317" lon="5.4382">
        <ele>512.4</ele>
        <time>2026-05-20T12:50:50.000Z</time>
      </trkpt>
      <trkpt lat="43.95309" lon="5.43814">
        <ele>511.1</ele>
        <time>2026-05-20T12:51:04.000Z</time>
      </trkpt>
      <trkpt lat="43.953" lon="5.43812">
        <ele>508.5</ele>
        <time>2026-05-20T12:51:20.000Z</time>
      </trkpt>
      <trkpt lat="43.9529" lon="5.4381">
        <ele>505.8</ele>
        <time>2026-05-20T12:51:37.000Z</time>
      </trkpt>
      <trkpt lat="43.95282" lon="5.43806">
        <ele>501.6</ele>
        <time>2026-05-20T12:51:47.000Z</time>
      </trkpt>
      <trkpt lat="43.95274" lon="5.43801">
        <ele>502</ele>
        <time>2026-05-20T12:51:58.000Z</time>
      </trkpt>
      <trkpt lat="43.95265" lon="5.43797">
        <ele>502.7</ele>
        <time>2026-05-20T12:52:13.000Z</time>
      </trkpt>
      <trkpt lat="43.95255" lon="5.43796">
        <ele>501.6</ele>
        <time>2026-05-20T12:52:26.000Z</time>
      </trkpt>
      <trkpt lat="43.95246" lon="5.43795">
        <ele>500.4</ele>
        <time>2026-05-20T12:52:43.000Z</time>
      </trkpt>
      <trkpt lat="43.95237" lon="5.43792">
        <ele>499.2</ele>
        <time>2026-05-20T12:52:53.000Z</time>
      </trkpt>
      <trkpt lat="43.95228" lon="5.43789">
        <ele>497.4</ele>
        <time>2026-05-20T12:53:01.000Z</time>
      </trkpt>
      <trkpt lat="43.95219" lon="5.43788">
        <ele>495.5</ele>
        <time>2026-05-20T12:53:12.000Z</time>
      </trkpt>
      <trkpt lat="43.9521" lon="5.43788">
        <ele>494.1</ele>
        <time>2026-05-20T12:53:23.000Z</time>
      </trkpt>
      <trkpt lat="43.952" lon="5.43789">
        <ele>492.7</ele>
        <time>2026-05-20T12:53:38.000Z</time>
      </trkpt>
      <trkpt lat="43.9519" lon="5.43791">
        <ele>491.1</ele>
        <time>2026-05-20T12:53:56.000Z</time>
      </trkpt>
      <trkpt lat="43.9518" lon="5.43792">
        <ele>489.1</ele>
        <time>2026-05-20T12:54:11.000Z</time>
      </trkpt>
      <trkpt lat="43.95171" lon="5.43788">
        <ele>486.4</ele>
        <time>2026-05-20T12:54:26.000Z</time>
      </trkpt>
      <trkpt lat="43.95162" lon="5.43786">
        <ele>484</ele>
        <time>2026-05-20T12:54:49.000Z</time>
      </trkpt>
      <trkpt lat="43.95153" lon="5.43783">
        <ele>481.7</ele>
        <time>2026-05-20T12:55:03.000Z</time>
      </trkpt>
      <trkpt lat="43.95144" lon="5.43781">
        <ele>479.5</ele>
        <time>2026-05-20T12:55:16.000Z</time>
      </trkpt>
      <trkpt lat="43.95135" lon="5.43778">
        <ele>476.9</ele>
        <time>2026-05-20T12:55:31.000Z</time>
      </trkpt>
      <trkpt lat="43.95126" lon="5.43775">
        <ele>477.5</ele>
        <time>2026-05-20T12:55:43.000Z</time>
      </trkpt>
      <trkpt lat="43.95117" lon="5.43775">
        <ele>476.9</ele>
        <time>2026-05-20T12:55:57.000Z</time>
      </trkpt>
      <trkpt lat="43.95108" lon="5.43773">
        <ele>476.5</ele>
        <time>2026-05-20T12:56:09.000Z</time>
      </trkpt>
      <trkpt lat="43.95098" lon="5.43772">
        <ele>475.8</ele>
        <time>2026-05-20T12:56:24.000Z</time>
      </trkpt>
      <trkpt lat="43.95088" lon="5.43771">
        <ele>475.2</ele>
        <time>2026-05-20T12:56:38.000Z</time>
      </trkpt>
      <trkpt lat="43.95079" lon="5.43769">
        <ele>474.4</ele>
        <time>2026-05-20T12:56:50.000Z</time>
      </trkpt>
      <trkpt lat="43.9507" lon="5.43766">
        <ele>473.5</ele>
        <time>2026-05-20T12:57:05.000Z</time>
      </trkpt>
      <trkpt lat="43.9506" lon="5.43766">
        <ele>471.6</ele>
        <time>2026-05-20T12:57:21.000Z</time>
      </trkpt>
      <trkpt lat="43.95051" lon="5.43767">
        <ele>470.1</ele>
        <time>2026-05-20T12:57:35.000Z</time>
      </trkpt>
      <trkpt lat="43.95041" lon="5.43768">
        <ele>468.8</ele>
        <time>2026-05-20T12:57:50.000Z</time>
      </trkpt>
      <trkpt lat="43.95032" lon="5.43768">
        <ele>467.8</ele>
        <time>2026-05-20T12:58:00.000Z</time>
      </trkpt>
      <trkpt lat="43.95022" lon="5.43766">
        <ele>467.4</ele>
        <time>2026-05-20T12:58:13.000Z</time>
      </trkpt>
      <trkpt lat="43.95014" lon="5.43765">
        <ele>467.1</ele>
        <time>2026-05-20T12:58:28.000Z</time>
      </trkpt>
      <trkpt lat="43.95005" lon="5.4377">
        <ele>464.9</ele>
        <time>2026-05-20T12:58:41.000Z</time>
      </trkpt>
      <trkpt lat="43.94996" lon="5.43774">
        <ele>462.8</ele>
        <time>2026-05-20T12:58:52.000Z</time>
      </trkpt>
      <trkpt lat="43.94986" lon="5.43776">
        <ele>461.1</ele>
        <time>2026-05-20T12:59:05.000Z</time>
      </trkpt>
      <trkpt lat="43.94978" lon="5.43779">
        <ele>459.8</ele>
        <time>2026-05-20T12:59:18.000Z</time>
      </trkpt>
      <trkpt lat="43.94968" lon="5.4378">
        <ele>459.2</ele>
        <time>2026-05-20T12:59:29.000Z</time>
      </trkpt>
      <trkpt lat="43.94959" lon="5.43781">
        <ele>458.8</ele>
        <time>2026-05-20T12:59:39.000Z</time>
      </trkpt>
      <trkpt lat="43.9495" lon="5.43786">
        <ele>458.7</ele>
        <time>2026-05-20T12:59:51.000Z</time>
      </trkpt>
      <trkpt lat="43.94941" lon="5.4379">
        <ele>458.1</ele>
        <time>2026-05-20T13:00:07.000Z</time>
      </trkpt>
      <trkpt lat="43.94932" lon="5.43792">
        <ele>457.2</ele>
        <time>2026-05-20T13:00:25.000Z</time>
      </trkpt>
      <trkpt lat="43.94924" lon="5.43796">
        <ele>456</ele>
        <time>2026-05-20T13:00:40.000Z</time>
      </trkpt>
      <trkpt lat="43.94915" lon="5.43798">
        <ele>454.6</ele>
        <time>2026-05-20T13:00:56.000Z</time>
      </trkpt>
      <trkpt lat="43.94907" lon="5.43799">
        <ele>453.1</ele>
        <time>2026-05-20T13:01:05.000Z</time>
      </trkpt>
      <trkpt lat="43.94899" lon="5.43799">
        <ele>451.8</ele>
        <time>2026-05-20T13:01:23.000Z</time>
      </trkpt>
      <trkpt lat="43.94893" lon="5.43805">
        <ele>450.6</ele>
        <time>2026-05-20T13:02:22.000Z</time>
      </trkpt>
      <trkpt lat="43.94888" lon="5.43797">
        <ele>450.2</ele>
        <time>2026-05-20T13:02:28.000Z</time>
      </trkpt>
      <trkpt lat="43.9488" lon="5.4379">
        <ele>449.7</ele>
        <time>2026-05-20T13:02:36.000Z</time>
      </trkpt>
      <trkpt lat="43.94871" lon="5.43784">
        <ele>448.6</ele>
        <time>2026-05-20T13:03:58.000Z</time>
      </trkpt>
      <trkpt lat="43.94864" lon="5.43785">
        <ele>447.8</ele>
        <time>2026-05-20T13:08:57.000Z</time>
      </trkpt>
      <trkpt lat="43.94868" lon="5.43781">
        <ele>448.1</ele>
        <time>2026-05-20T13:16:21.000Z</time>
      </trkpt>
      <trkpt lat="43.94861" lon="5.43779">
        <ele>447</ele>
        <time>2026-05-20T13:20:51.000Z</time>
      </trkpt>
      <trkpt lat="43.94852" lon="5.43776">
        <ele>446.7</ele>
        <time>2026-05-20T13:21:02.000Z</time>
      </trkpt>
      <trkpt lat="43.94843" lon="5.43774">
        <ele>446.4</ele>
        <time>2026-05-20T13:21:12.000Z</time>
      </trkpt>
      <trkpt lat="43.94833" lon="5.43771">
        <ele>446</ele>
        <time>2026-05-20T13:21:24.000Z</time>
      </trkpt>
      <trkpt lat="43.94823" lon="5.4377">
        <ele>445.3</ele>
        <time>2026-05-20T13:21:35.000Z</time>
      </trkpt>
      <trkpt lat="43.94814" lon="5.43776">
        <ele>443.5</ele>
        <time>2026-05-20T13:21:47.000Z</time>
      </trkpt>
      <trkpt lat="43.94807" lon="5.43784">
        <ele>442.1</ele>
        <time>2026-05-20T13:21:57.000Z</time>
      </trkpt>
      <trkpt lat="43.94799" lon="5.43792">
        <ele>442.5</ele>
        <time>2026-05-20T13:22:06.000Z</time>
      </trkpt>
      <trkpt lat="43.94792" lon="5.43798">
        <ele>442.1</ele>
        <time>2026-05-20T13:22:15.000Z</time>
      </trkpt>
      <trkpt lat="43.94783" lon="5.43801">
        <ele>441</ele>
        <time>2026-05-20T13:22:24.000Z</time>
      </trkpt>
      <trkpt lat="43.94774" lon="5.43806">
        <ele>439.4</ele>
        <time>2026-05-20T13:22:35.000Z</time>
      </trkpt>
      <trkpt lat="43.94765" lon="5.43812">
        <ele>439.8</ele>
        <time>2026-05-20T13:22:45.000Z</time>
      </trkpt>
      <trkpt lat="43.94757" lon="5.43818">
        <ele>439.5</ele>
        <time>2026-05-20T13:22:54.000Z</time>
      </trkpt>
      <trkpt lat="43.94748" lon="5.43824">
        <ele>438.5</ele>
        <time>2026-05-20T13:23:04.000Z</time>
      </trkpt>
      <trkpt lat="43.94739" lon="5.4383">
        <ele>436.7</ele>
        <time>2026-05-20T13:23:13.000Z</time>
      </trkpt>
      <trkpt lat="43.94731" lon="5.43834">
        <ele>434.9</ele>
        <time>2026-05-20T13:23:22.000Z</time>
      </trkpt>
      <trkpt lat="43.94722" lon="5.43837">
        <ele>433.9</ele>
        <time>2026-05-20T13:23:32.000Z</time>
      </trkpt>
      <trkpt lat="43.94714" lon="5.4384">
        <ele>433.2</ele>
        <time>2026-05-20T13:23:39.000Z</time>
      </trkpt>
      <trkpt lat="43.94704" lon="5.43841">
        <ele>432.4</ele>
        <time>2026-05-20T13:23:48.000Z</time>
      </trkpt>
      <trkpt lat="43.94695" lon="5.4384">
        <ele>431.8</ele>
        <time>2026-05-20T13:23:58.000Z</time>
      </trkpt>
      <trkpt lat="43.94686" lon="5.43838">
        <ele>431</ele>
        <time>2026-05-20T13:24:08.000Z</time>
      </trkpt>
      <trkpt lat="43.94677" lon="5.43837">
        <ele>430</ele>
        <time>2026-05-20T13:24:18.000Z</time>
      </trkpt>
      <trkpt lat="43.94668" lon="5.43835">
        <ele>429.1</ele>
        <time>2026-05-20T13:24:27.000Z</time>
      </trkpt>
      <trkpt lat="43.94658" lon="5.43831">
        <ele>428.3</ele>
        <time>2026-05-20T13:24:37.000Z</time>
      </trkpt>
      <trkpt lat="43.94649" lon="5.43828">
        <ele>427.5</ele>
        <time>2026-05-20T13:24:47.000Z</time>
      </trkpt>
      <trkpt lat="43.94641" lon="5.43823">
        <ele>426.4</ele>
        <time>2026-05-20T13:24:57.000Z</time>
      </trkpt>
      <trkpt lat="43.94633" lon="5.43817">
        <ele>425.4</ele>
        <time>2026-05-20T13:25:07.000Z</time>
      </trkpt>
      <trkpt lat="43.94624" lon="5.43812">
        <ele>424.4</ele>
        <time>2026-05-20T13:25:16.000Z</time>
      </trkpt>
      <trkpt lat="43.94615" lon="5.43809">
        <ele>423.4</ele>
        <time>2026-05-20T13:25:26.000Z</time>
      </trkpt>
      <trkpt lat="43.94607" lon="5.43806">
        <ele>422.5</ele>
        <time>2026-05-20T13:25:35.000Z</time>
      </trkpt>
      <trkpt lat="43.94599" lon="5.43801">
        <ele>422.8</ele>
        <time>2026-05-20T13:25:45.000Z</time>
      </trkpt>
      <trkpt lat="43.9459" lon="5.43801">
        <ele>422</ele>
        <time>2026-05-20T13:25:55.000Z</time>
      </trkpt>
      <trkpt lat="43.94581" lon="5.43804">
        <ele>420.2</ele>
        <time>2026-05-20T13:26:03.000Z</time>
      </trkpt>
      <trkpt lat="43.94573" lon="5.43806">
        <ele>418.8</ele>
        <time>2026-05-20T13:26:11.000Z</time>
      </trkpt>
      <trkpt lat="43.94564" lon="5.43809">
        <ele>417.9</ele>
        <time>2026-05-20T13:26:20.000Z</time>
      </trkpt>
      <trkpt lat="43.94555" lon="5.43811">
        <ele>417</ele>
        <time>2026-05-20T13:26:28.000Z</time>
      </trkpt>
      <trkpt lat="43.94546" lon="5.43811">
        <ele>416.2</ele>
        <time>2026-05-20T13:26:38.000Z</time>
      </trkpt>
      <trkpt lat="43.94537" lon="5.4381">
        <ele>415.5</ele>
        <time>2026-05-20T13:26:47.000Z</time>
      </trkpt>
      <trkpt lat="43.94528" lon="5.43808">
        <ele>414.9</ele>
        <time>2026-05-20T13:26:56.000Z</time>
      </trkpt>
      <trkpt lat="43.9452" lon="5.4381">
        <ele>414.2</ele>
        <time>2026-05-20T13:27:06.000Z</time>
      </trkpt>
      <trkpt lat="43.9451" lon="5.43809">
        <ele>413.6</ele>
        <time>2026-05-20T13:27:15.000Z</time>
      </trkpt>
      <trkpt lat="43.94501" lon="5.43809">
        <ele>412.9</ele>
        <time>2026-05-20T13:27:24.000Z</time>
      </trkpt>
      <trkpt lat="43.94492" lon="5.43811">
        <ele>412.2</ele>
        <time>2026-05-20T13:27:34.000Z</time>
      </trkpt>
      <trkpt lat="43.94483" lon="5.43814">
        <ele>411.3</ele>
        <time>2026-05-20T13:27:43.000Z</time>
      </trkpt>
      <trkpt lat="43.94474" lon="5.43816">
        <ele>410.4</ele>
        <time>2026-05-20T13:27:51.000Z</time>
      </trkpt>
      <trkpt lat="43.94465" lon="5.43818">
        <ele>409.7</ele>
        <time>2026-05-20T13:28:02.000Z</time>
      </trkpt>
      <trkpt lat="43.94456" lon="5.4382">
        <ele>409.1</ele>
        <time>2026-05-20T13:28:11.000Z</time>
      </trkpt>
      <trkpt lat="43.94447" lon="5.43823">
        <ele>408.3</ele>
        <time>2026-05-20T13:28:20.000Z</time>
      </trkpt>
      <trkpt lat="43.94438" lon="5.43826">
        <ele>407.5</ele>
        <time>2026-05-20T13:28:28.000Z</time>
      </trkpt>
      <trkpt lat="43.94429" lon="5.43828">
        <ele>406.7</ele>
        <time>2026-05-20T13:28:38.000Z</time>
      </trkpt>
      <trkpt lat="43.9442" lon="5.43832">
        <ele>405.6</ele>
        <time>2026-05-20T13:28:46.000Z</time>
      </trkpt>
      <trkpt lat="43.9441" lon="5.43834">
        <ele>404.8</ele>
        <time>2026-05-20T13:28:56.000Z</time>
      </trkpt>
      <trkpt lat="43.94401" lon="5.43836">
        <ele>404.4</ele>
        <time>2026-05-20T13:29:06.000Z</time>
      </trkpt>
      <trkpt lat="43.94391" lon="5.43835">
        <ele>404</ele>
        <time>2026-05-20T13:29:16.000Z</time>
      </trkpt>
      <trkpt lat="43.94381" lon="5.43836">
        <ele>403.3</ele>
        <time>2026-05-20T13:29:26.000Z</time>
      </trkpt>
      <trkpt lat="43.94372" lon="5.43837">
        <ele>402.5</ele>
        <time>2026-05-20T13:29:35.000Z</time>
      </trkpt>
      <trkpt lat="43.94363" lon="5.43838">
        <ele>401.8</ele>
        <time>2026-05-20T13:29:42.000Z</time>
      </trkpt>
      <trkpt lat="43.94353" lon="5.4384">
        <ele>401</ele>
        <time>2026-05-20T13:29:50.000Z</time>
      </trkpt>
      <trkpt lat="43.94345" lon="5.43841">
        <ele>400.4</ele>
        <time>2026-05-20T13:29:59.000Z</time>
      </trkpt>
      <trkpt lat="43.94336" lon="5.43846">
        <ele>399.7</ele>
        <time>2026-05-20T13:30:10.000Z</time>
      </trkpt>
      <trkpt lat="43.94327" lon="5.43848">
        <ele>399</ele>
        <time>2026-05-20T13:30:18.000Z</time>
      </trkpt>
      <trkpt lat="43.94318" lon="5.43851">
        <ele>398.2</ele>
        <time>2026-05-20T13:30:28.000Z</time>
      </trkpt>
      <trkpt lat="43.94308" lon="5.43854">
        <ele>397.5</ele>
        <time>2026-05-20T13:31:45.000Z</time>
      </trkpt>
      <trkpt lat="43.943" lon="5.43851">
        <ele>396.9</ele>
        <time>2026-05-20T13:31:53.000Z</time>
      </trkpt>
      <trkpt lat="43.9429" lon="5.4385">
        <ele>396.3</ele>
        <time>2026-05-20T13:32:02.000Z</time>
      </trkpt>
      <trkpt lat="43.94281" lon="5.43848">
        <ele>395.7</ele>
        <time>2026-05-20T13:32:12.000Z</time>
      </trkpt>
      <trkpt lat="43.94272" lon="5.43845">
        <ele>395.1</ele>
        <time>2026-05-20T13:32:21.000Z</time>
      </trkpt>
      <trkpt lat="43.94262" lon="5.43843">
        <ele>394.6</ele>
        <time>2026-05-20T13:32:33.000Z</time>
      </trkpt>
      <trkpt lat="43.94254" lon="5.4384">
        <ele>394</ele>
        <time>2026-05-20T13:32:41.000Z</time>
      </trkpt>
      <trkpt lat="43.94244" lon="5.43839">
        <ele>393.4</ele>
        <time>2026-05-20T13:32:50.000Z</time>
      </trkpt>
      <trkpt lat="43.94235" lon="5.43836">
        <ele>392.9</ele>
        <time>2026-05-20T13:33:00.000Z</time>
      </trkpt>
      <trkpt lat="43.94226" lon="5.43834">
        <ele>392.2</ele>
        <time>2026-05-20T13:33:10.000Z</time>
      </trkpt>
      <trkpt lat="43.94215" lon="5.43833">
        <ele>391.5</ele>
        <time>2026-05-20T13:33:21.000Z</time>
      </trkpt>
      <trkpt lat="43.94206" lon="5.43832">
        <ele>390.8</ele>
        <time>2026-05-20T13:33:31.000Z</time>
      </trkpt>
      <trkpt lat="43.94196" lon="5.4383">
        <ele>390.1</ele>
        <time>2026-05-20T13:33:40.000Z</time>
      </trkpt>
      <trkpt lat="43.94188" lon="5.43828">
        <ele>389.8</ele>
        <time>2026-05-20T13:33:50.000Z</time>
      </trkpt>
      <trkpt lat="43.94179" lon="5.43824">
        <ele>389.4</ele>
        <time>2026-05-20T13:33:59.000Z</time>
      </trkpt>
      <trkpt lat="43.94171" lon="5.43819">
        <ele>389.1</ele>
        <time>2026-05-20T13:34:09.000Z</time>
      </trkpt>
      <trkpt lat="43.94163" lon="5.43811">
        <ele>388.6</ele>
        <time>2026-05-20T13:34:18.000Z</time>
      </trkpt>
      <trkpt lat="43.94155" lon="5.43804">
        <ele>387.6</ele>
        <time>2026-05-20T13:34:30.000Z</time>
      </trkpt>
      <trkpt lat="43.94147" lon="5.43796">
        <ele>386.8</ele>
        <time>2026-05-20T13:34:41.000Z</time>
      </trkpt>
      <trkpt lat="43.94139" lon="5.43788">
        <ele>386</ele>
        <time>2026-05-20T13:34:50.000Z</time>
      </trkpt>
      <trkpt lat="43.94132" lon="5.4378">
        <ele>385.7</ele>
        <time>2026-05-20T13:34:59.000Z</time>
      </trkpt>
      <trkpt lat="43.94124" lon="5.43773">
        <ele>385.4</ele>
        <time>2026-05-20T13:35:09.000Z</time>
      </trkpt>
      <trkpt lat="43.94116" lon="5.43766">
        <ele>385.2</ele>
        <time>2026-05-20T13:35:19.000Z</time>
      </trkpt>
      <trkpt lat="43.94107" lon="5.4376">
        <ele>384.7</ele>
        <time>2026-05-20T13:35:29.000Z</time>
      </trkpt>
      <trkpt lat="43.94098" lon="5.43755">
        <ele>384.1</ele>
        <time>2026-05-20T13:35:37.000Z</time>
      </trkpt>
      <trkpt lat="43.94089" lon="5.43751">
        <ele>383.4</ele>
        <time>2026-05-20T13:35:47.000Z</time>
      </trkpt>
      <trkpt lat="43.9408" lon="5.43747">
        <ele>382.9</ele>
        <time>2026-05-20T13:35:55.000Z</time>
      </trkpt>
      <trkpt lat="43.94071" lon="5.43744">
        <ele>382.3</ele>
        <time>2026-05-20T13:36:04.000Z</time>
      </trkpt>
      <trkpt lat="43.94062" lon="5.43738">
        <ele>381.9</ele>
        <time>2026-05-20T13:36:13.000Z</time>
      </trkpt>
      <trkpt lat="43.94053" lon="5.43734">
        <ele>381.4</ele>
        <time>2026-05-20T13:36:21.000Z</time>
      </trkpt>
      <trkpt lat="43.94044" lon="5.43729">
        <ele>381</ele>
        <time>2026-05-20T13:36:30.000Z</time>
      </trkpt>
      <trkpt lat="43.94035" lon="5.43723">
        <ele>380.5</ele>
        <time>2026-05-20T13:36:40.000Z</time>
      </trkpt>
      <trkpt lat="43.94027" lon="5.43718">
        <ele>380.2</ele>
        <time>2026-05-20T13:36:48.000Z</time>
      </trkpt>
      <trkpt lat="43.94018" lon="5.43714">
        <ele>379.7</ele>
        <time>2026-05-20T13:36:57.000Z</time>
      </trkpt>
      <trkpt lat="43.94009" lon="5.43711">
        <ele>379.2</ele>
        <time>2026-05-20T13:37:05.000Z</time>
      </trkpt>
      <trkpt lat="43.93999" lon="5.43707">
        <ele>378.5</ele>
        <time>2026-05-20T13:37:15.000Z</time>
      </trkpt>
      <trkpt lat="43.93989" lon="5.43702">
        <ele>378</ele>
        <time>2026-05-20T13:37:24.000Z</time>
      </trkpt>
      <trkpt lat="43.93979" lon="5.43697">
        <ele>377.5</ele>
        <time>2026-05-20T13:37:33.000Z</time>
      </trkpt>
      <trkpt lat="43.93971" lon="5.43692">
        <ele>377</ele>
        <time>2026-05-20T13:37:42.000Z</time>
      </trkpt>
      <trkpt lat="43.93962" lon="5.43689">
        <ele>376.6</ele>
        <time>2026-05-20T13:37:51.000Z</time>
      </trkpt>
      <trkpt lat="43.93954" lon="5.43683">
        <ele>376.3</ele>
        <time>2026-05-20T13:38:00.000Z</time>
      </trkpt>
      <trkpt lat="43.93947" lon="5.43676">
        <ele>375.9</ele>
        <time>2026-05-20T13:38:09.000Z</time>
      </trkpt>
      <trkpt lat="43.93939" lon="5.43672">
        <ele>375.3</ele>
        <time>2026-05-20T13:38:17.000Z</time>
      </trkpt>
      <trkpt lat="43.93931" lon="5.43668">
        <ele>374.5</ele>
        <time>2026-05-20T13:38:25.000Z</time>
      </trkpt>
      <trkpt lat="43.93922" lon="5.43663">
        <ele>373.9</ele>
        <time>2026-05-20T13:38:34.000Z</time>
      </trkpt>
      <trkpt lat="43.93914" lon="5.43657">
        <ele>373.5</ele>
        <time>2026-05-20T13:38:44.000Z</time>
      </trkpt>
      <trkpt lat="43.93905" lon="5.43652">
        <ele>373.2</ele>
        <time>2026-05-20T13:38:54.000Z</time>
      </trkpt>
      <trkpt lat="43.93896" lon="5.43646">
        <ele>372.7</ele>
        <time>2026-05-20T13:39:04.000Z</time>
      </trkpt>
      <trkpt lat="43.93888" lon="5.43639">
        <ele>372</ele>
        <time>2026-05-20T13:39:13.000Z</time>
      </trkpt>
      <trkpt lat="43.9388" lon="5.43634">
        <ele>371.7</ele>
        <time>2026-05-20T13:39:21.000Z</time>
      </trkpt>
      <trkpt lat="43.93871" lon="5.43629">
        <ele>371.2</ele>
        <time>2026-05-20T13:39:30.000Z</time>
      </trkpt>
      <trkpt lat="43.93861" lon="5.43623">
        <ele>370.6</ele>
        <time>2026-05-20T13:39:39.000Z</time>
      </trkpt>
      <trkpt lat="43.93852" lon="5.43617">
        <ele>370.2</ele>
        <time>2026-05-20T13:39:49.000Z</time>
      </trkpt>
      <trkpt lat="43.93843" lon="5.43611">
        <ele>369.7</ele>
        <time>2026-05-20T13:39:58.000Z</time>
      </trkpt>
      <trkpt lat="43.93835" lon="5.43606">
        <ele>369.4</ele>
        <time>2026-05-20T13:40:06.000Z</time>
      </trkpt>
      <trkpt lat="43.93827" lon="5.43599">
        <ele>369.1</ele>
        <time>2026-05-20T13:40:16.000Z</time>
      </trkpt>
      <trkpt lat="43.93818" lon="5.43591">
        <ele>368.8</ele>
        <time>2026-05-20T13:40:25.000Z</time>
      </trkpt>
      <trkpt lat="43.9381" lon="5.43584">
        <ele>368.3</ele>
        <time>2026-05-20T13:40:34.000Z</time>
      </trkpt>
      <trkpt lat="43.93802" lon="5.43579">
        <ele>367.9</ele>
        <time>2026-05-20T13:40:42.000Z</time>
      </trkpt>
      <trkpt lat="43.93793" lon="5.43572">
        <ele>367.3</ele>
        <time>2026-05-20T13:40:52.000Z</time>
      </trkpt>
      <trkpt lat="43.93785" lon="5.43564">
        <ele>366.7</ele>
        <time>2026-05-20T13:41:01.000Z</time>
      </trkpt>
      <trkpt lat="43.93777" lon="5.43557">
        <ele>365.9</ele>
        <time>2026-05-20T13:41:10.000Z</time>
      </trkpt>
      <trkpt lat="43.93769" lon="5.43549">
        <ele>365.6</ele>
        <time>2026-05-20T13:41:18.000Z</time>
      </trkpt>
      <trkpt lat="43.93761" lon="5.43543">
        <ele>365.1</ele>
        <time>2026-05-20T13:41:28.000Z</time>
      </trkpt>
      <trkpt lat="43.93754" lon="5.43533">
        <ele>364.5</ele>
        <time>2026-05-20T13:41:36.000Z</time>
      </trkpt>
      <trkpt lat="43.93747" lon="5.43526">
        <ele>363.9</ele>
        <time>2026-05-20T13:41:44.000Z</time>
      </trkpt>
      <trkpt lat="43.93739" lon="5.43521">
        <ele>363.5</ele>
        <time>2026-05-20T13:41:53.000Z</time>
      </trkpt>
      <trkpt lat="43.9373" lon="5.43512">
        <ele>362.9</ele>
        <time>2026-05-20T13:42:02.000Z</time>
      </trkpt>
      <trkpt lat="43.93723" lon="5.43504">
        <ele>362.1</ele>
        <time>2026-05-20T13:42:10.000Z</time>
      </trkpt>
      <trkpt lat="43.93717" lon="5.43495">
        <ele>361.9</ele>
        <time>2026-05-20T13:42:18.000Z</time>
      </trkpt>
      <trkpt lat="43.93711" lon="5.43486">
        <ele>361.9</ele>
        <time>2026-05-20T13:42:27.000Z</time>
      </trkpt>
      <trkpt lat="43.93704" lon="5.43476">
        <ele>361.6</ele>
        <time>2026-05-20T13:42:35.000Z</time>
      </trkpt>
      <trkpt lat="43.93696" lon="5.43466">
        <ele>361.1</ele>
        <time>2026-05-20T13:42:46.000Z</time>
      </trkpt>
      <trkpt lat="43.93689" lon="5.43456">
        <ele>360.6</ele>
        <time>2026-05-20T13:42:55.000Z</time>
      </trkpt>
      <trkpt lat="43.93683" lon="5.43446">
        <ele>360.1</ele>
        <time>2026-05-20T13:43:03.000Z</time>
      </trkpt>
      <trkpt lat="43.93677" lon="5.43436">
        <ele>359.7</ele>
        <time>2026-05-20T13:43:11.000Z</time>
      </trkpt>
      <trkpt lat="43.93671" lon="5.43426">
        <ele>359.3</ele>
        <time>2026-05-20T13:43:19.000Z</time>
      </trkpt>
      <trkpt lat="43.93666" lon="5.43416">
        <ele>359</ele>
        <time>2026-05-20T13:43:27.000Z</time>
      </trkpt>
      <trkpt lat="43.9366" lon="5.43406">
        <ele>358.5</ele>
        <time>2026-05-20T13:43:35.000Z</time>
      </trkpt>
      <trkpt lat="43.93653" lon="5.43397">
        <ele>358</ele>
        <time>2026-05-20T13:43:44.000Z</time>
      </trkpt>
      <trkpt lat="43.93646" lon="5.43387">
        <ele>357.5</ele>
        <time>2026-05-20T13:43:53.000Z</time>
      </trkpt>
      <trkpt lat="43.93639" lon="5.43377">
        <ele>357</ele>
        <time>2026-05-20T13:44:02.000Z</time>
      </trkpt>
      <trkpt lat="43.93632" lon="5.43367">
        <ele>356.5</ele>
        <time>2026-05-20T13:44:11.000Z</time>
      </trkpt>
      <trkpt lat="43.93626" lon="5.43356">
        <ele>356.1</ele>
        <time>2026-05-20T13:44:20.000Z</time>
      </trkpt>
      <trkpt lat="43.93621" lon="5.43344">
        <ele>355.5</ele>
        <time>2026-05-20T13:44:29.000Z</time>
      </trkpt>
      <trkpt lat="43.93616" lon="5.43333">
        <ele>354.7</ele>
        <time>2026-05-20T13:44:37.000Z</time>
      </trkpt>
      <trkpt lat="43.9361" lon="5.43324">
        <ele>354.3</ele>
        <time>2026-05-20T13:44:46.000Z</time>
      </trkpt>
      <trkpt lat="43.93605" lon="5.43312">
        <ele>354.4</ele>
        <time>2026-05-20T13:44:54.000Z</time>
      </trkpt>
      <trkpt lat="43.936" lon="5.433">
        <ele>354.5</ele>
        <time>2026-05-20T13:45:03.000Z</time>
      </trkpt>
      <trkpt lat="43.93594" lon="5.43288">
        <ele>354.1</ele>
        <time>2026-05-20T13:45:11.000Z</time>
      </trkpt>
      <trkpt lat="43.93589" lon="5.43277">
        <ele>353.2</ele>
        <time>2026-05-20T13:45:19.000Z</time>
      </trkpt>
      <trkpt lat="43.93582" lon="5.43268">
        <ele>353</ele>
        <time>2026-05-20T13:45:28.000Z</time>
      </trkpt>
      <trkpt lat="43.93573" lon="5.43261">
        <ele>353</ele>
        <time>2026-05-20T13:45:36.000Z</time>
      </trkpt>
      <trkpt lat="43.93564" lon="5.43253">
        <ele>352.2</ele>
        <time>2026-05-20T13:45:45.000Z</time>
      </trkpt>
      <trkpt lat="43.93556" lon="5.43246">
        <ele>351.2</ele>
        <time>2026-05-20T13:45:54.000Z</time>
      </trkpt>
      <trkpt lat="43.93549" lon="5.43238">
        <ele>351.2</ele>
        <time>2026-05-20T13:46:06.000Z</time>
      </trkpt>
      <trkpt lat="43.9355" lon="5.43225">
        <ele>351.5</ele>
        <time>2026-05-20T13:48:04.000Z</time>
      </trkpt>
      <trkpt lat="43.93551" lon="5.43212">
        <ele>351.3</ele>
        <time>2026-05-20T13:48:11.000Z</time>
      </trkpt>
      <trkpt lat="43.93554" lon="5.432">
        <ele>351.1</ele>
        <time>2026-05-20T13:48:19.000Z</time>
      </trkpt>
      <trkpt lat="43.93558" lon="5.43188">
        <ele>351.2</ele>
        <time>2026-05-20T13:48:29.000Z</time>
      </trkpt>
      <trkpt lat="43.93561" lon="5.43176">
        <ele>351.2</ele>
        <time>2026-05-20T13:48:38.000Z</time>
      </trkpt>
      <trkpt lat="43.93565" lon="5.43165">
        <ele>351.3</ele>
        <time>2026-05-20T13:48:46.000Z</time>
      </trkpt>
      <trkpt lat="43.9357" lon="5.43155">
        <ele>351.5</ele>
        <time>2026-05-20T13:48:53.000Z</time>
      </trkpt>
      <trkpt lat="43.93575" lon="5.43144">
        <ele>351.4</ele>
        <time>2026-05-20T13:49:03.000Z</time>
      </trkpt>
      <trkpt lat="43.9358" lon="5.43133">
        <ele>351.1</ele>
        <time>2026-05-20T13:49:12.000Z</time>
      </trkpt>
      <trkpt lat="43.93587" lon="5.43122">
        <ele>350.4</ele>
        <time>2026-05-20T13:49:21.000Z</time>
      </trkpt>
      <trkpt lat="43.93594" lon="5.43111">
        <ele>350.1</ele>
        <time>2026-05-20T13:49:30.000Z</time>
      </trkpt>
      <trkpt lat="43.936" lon="5.431">
        <ele>349.8</ele>
        <time>2026-05-20T13:49:41.000Z</time>
      </trkpt>
      <trkpt lat="43.93607" lon="5.4309">
        <ele>349.4</ele>
        <time>2026-05-20T13:49:51.000Z</time>
      </trkpt>
      <trkpt lat="43.93614" lon="5.4308">
        <ele>348.8</ele>
        <time>2026-05-20T13:49:59.000Z</time>
      </trkpt>
      <trkpt lat="43.9362" lon="5.43071">
        <ele>348.3</ele>
        <time>2026-05-20T13:50:07.000Z</time>
      </trkpt>
      <trkpt lat="43.93627" lon="5.43062">
        <ele>348.2</ele>
        <time>2026-05-20T13:50:16.000Z</time>
      </trkpt>
      <trkpt lat="43.93633" lon="5.43053">
        <ele>348.2</ele>
        <time>2026-05-20T13:50:24.000Z</time>
      </trkpt>
      <trkpt lat="43.93637" lon="5.43042">
        <ele>348.3</ele>
        <time>2026-05-20T13:50:31.000Z</time>
      </trkpt>
      <trkpt lat="43.93639" lon="5.4303">
        <ele>348.1</ele>
        <time>2026-05-20T13:50:39.000Z</time>
      </trkpt>
      <trkpt lat="43.9364" lon="5.43017">
        <ele>347.7</ele>
        <time>2026-05-20T13:50:48.000Z</time>
      </trkpt>
      <trkpt lat="43.93641" lon="5.43005">
        <ele>347.4</ele>
        <time>2026-05-20T13:50:54.000Z</time>
      </trkpt>
      <trkpt lat="43.93642" lon="5.42992">
        <ele>347.2</ele>
        <time>2026-05-20T13:51:03.000Z</time>
      </trkpt>
      <trkpt lat="43.93644" lon="5.42978">
        <ele>346.9</ele>
        <time>2026-05-20T13:51:12.000Z</time>
      </trkpt>
      <trkpt lat="43.93644" lon="5.42965">
        <ele>346.5</ele>
        <time>2026-05-20T13:51:21.000Z</time>
      </trkpt>
      <trkpt lat="43.93642" lon="5.42951">
        <ele>345.8</ele>
        <time>2026-05-20T13:51:30.000Z</time>
      </trkpt>
      <trkpt lat="43.93641" lon="5.42938">
        <ele>345.3</ele>
        <time>2026-05-20T13:51:38.000Z</time>
      </trkpt>
      <trkpt lat="43.93639" lon="5.42924">
        <ele>345</ele>
        <time>2026-05-20T13:51:47.000Z</time>
      </trkpt>
      <trkpt lat="43.93637" lon="5.42909">
        <ele>344.5</ele>
        <time>2026-05-20T13:51:57.000Z</time>
      </trkpt>
      <trkpt lat="43.93634" lon="5.42895">
        <ele>343.9</ele>
        <time>2026-05-20T13:52:05.000Z</time>
      </trkpt>
      <trkpt lat="43.93632" lon="5.42881">
        <ele>343.7</ele>
        <time>2026-05-20T13:52:14.000Z</time>
      </trkpt>
      <trkpt lat="43.93631" lon="5.42866">
        <ele>343.7</ele>
        <time>2026-05-20T13:52:22.000Z</time>
      </trkpt>
      <trkpt lat="43.93629" lon="5.42852">
        <ele>343.1</ele>
        <time>2026-05-20T13:52:31.000Z</time>
      </trkpt>
      <trkpt lat="43.93628" lon="5.42838">
        <ele>342.1</ele>
        <time>2026-05-20T13:52:40.000Z</time>
      </trkpt>
      <trkpt lat="43.93626" lon="5.42825">
        <ele>341.4</ele>
        <time>2026-05-20T13:52:48.000Z</time>
      </trkpt>
      <trkpt lat="43.93622" lon="5.42812">
        <ele>340.9</ele>
        <time>2026-05-20T13:52:56.000Z</time>
      </trkpt>
      <trkpt lat="43.93619" lon="5.428">
        <ele>340.4</ele>
        <time>2026-05-20T13:53:05.000Z</time>
      </trkpt>
      <trkpt lat="43.93617" lon="5.42787">
        <ele>339.7</ele>
        <time>2026-05-20T13:53:14.000Z</time>
      </trkpt>
      <trkpt lat="43.93614" lon="5.42774">
        <ele>339</ele>
        <time>2026-05-20T13:53:24.000Z</time>
      </trkpt>
      <trkpt lat="43.93611" lon="5.42761">
        <ele>338.4</ele>
        <time>2026-05-20T13:53:32.000Z</time>
      </trkpt>
      <trkpt lat="43.93609" lon="5.42747">
        <ele>337.8</ele>
        <time>2026-05-20T13:53:42.000Z</time>
      </trkpt>
      <trkpt lat="43.93606" lon="5.42733">
        <ele>337.6</ele>
        <time>2026-05-20T13:53:51.000Z</time>
      </trkpt>
      <trkpt lat="43.93601" lon="5.42722">
        <ele>337.2</ele>
        <time>2026-05-20T13:54:00.000Z</time>
      </trkpt>
      <trkpt lat="43.93595" lon="5.42712">
        <ele>336.8</ele>
        <time>2026-05-20T13:54:09.000Z</time>
      </trkpt>
      <trkpt lat="43.9359" lon="5.42702">
        <ele>336.5</ele>
        <time>2026-05-20T13:54:17.000Z</time>
      </trkpt>
      <trkpt lat="43.93585" lon="5.42692">
        <ele>336.1</ele>
        <time>2026-05-20T13:54:24.000Z</time>
      </trkpt>
      <trkpt lat="43.93578" lon="5.42682">
        <ele>335.6</ele>
        <time>2026-05-20T13:54:33.000Z</time>
      </trkpt>
      <trkpt lat="43.93572" lon="5.42672">
        <ele>334.9</ele>
        <time>2026-05-20T13:54:41.000Z</time>
      </trkpt>
      <trkpt lat="43.93568" lon="5.42661">
        <ele>334.2</ele>
        <time>2026-05-20T13:54:49.000Z</time>
      </trkpt>
      <trkpt lat="43.93562" lon="5.42652">
        <ele>333.6</ele>
        <time>2026-05-20T13:54:58.000Z</time>
      </trkpt>
      <trkpt lat="43.93557" lon="5.42642">
        <ele>333.1</ele>
        <time>2026-05-20T13:55:07.000Z</time>
      </trkpt>
      <trkpt lat="43.93551" lon="5.42631">
        <ele>332.7</ele>
        <time>2026-05-20T13:55:17.000Z</time>
      </trkpt>
      <trkpt lat="43.93547" lon="5.42618">
        <ele>332.6</ele>
        <time>2026-05-20T13:55:27.000Z</time>
      </trkpt>
      <trkpt lat="43.93539" lon="5.42611">
        <ele>332.4</ele>
        <time>2026-05-20T13:55:37.000Z</time>
      </trkpt>
      <trkpt lat="43.9353" lon="5.42608">
        <ele>332.1</ele>
        <time>2026-05-20T13:55:51.000Z</time>
      </trkpt>
      <trkpt lat="43.93522" lon="5.42607">
        <ele>331.7</ele>
        <time>2026-05-20T13:56:08.000Z</time>
      </trkpt>
    </trkseg>
  </trk>
</gpx>